<?xml version="1.0" encoding="UTF-8" standalone="no" ?>
<gpx xmlns="http://www.topografix.com/GPX/1/1" xmlns:xsi="http://www.w3.org/2001/XMLSchema-instance" xsi:schemaLocation="http://www.topografix.com/GPX/1/1 http://www.topografix.com/GPX/1/1/gpx.xsd" version="1.1" creator="VisuGPX - https://www.visugpx.com">
  <metadata>
    <name>CARREFOUR DE LUYNES 7</name>
  </metadata>
  <trk>
    <name><![CDATA[CARREFOUR DE LUYNES 7]]></name>
    <trkseg>
      <trkpt lat="48.59185" lon="1.96615">
        <ele>73.68</ele>
        <time>2017-08-09T07:21:56Z</time>
      </trkpt>
      <trkpt lat="48.59186" lon="1.96615">
        <ele>73.68</ele>
        <time>2017-08-09T07:21:57Z</time>
      </trkpt>
      <trkpt lat="48.59175" lon="1.96612">
        <ele>76.56</ele>
        <time>2017-08-09T07:22:06Z</time>
      </trkpt>
      <trkpt lat="48.59175" lon="1.9661">
        <ele>80.89</ele>
        <time>2017-08-09T07:22:09Z</time>
      </trkpt>
      <trkpt lat="48.59174" lon="1.96608">
        <ele>84.25</ele>
        <time>2017-08-09T07:22:12Z</time>
      </trkpt>
      <trkpt lat="48.59174" lon="1.96606">
        <ele>88.1</ele>
        <time>2017-08-09T07:22:15Z</time>
      </trkpt>
      <trkpt lat="48.59174" lon="1.96604">
        <ele>91.46</ele>
        <time>2017-08-09T07:22:18Z</time>
      </trkpt>
      <trkpt lat="48.59174" lon="1.96603">
        <ele>94.83</ele>
        <time>2017-08-09T07:22:21Z</time>
      </trkpt>
      <trkpt lat="48.59174" lon="1.96603">
        <ele>98.19</ele>
        <time>2017-08-09T07:22:24Z</time>
      </trkpt>
      <trkpt lat="48.59175" lon="1.96601">
        <ele>102.04</ele>
        <time>2017-08-09T07:22:28Z</time>
      </trkpt>
      <trkpt lat="48.59176" lon="1.96601">
        <ele>105.4</ele>
        <time>2017-08-09T07:22:32Z</time>
      </trkpt>
      <trkpt lat="48.59175" lon="1.966">
        <ele>110.69</ele>
        <time>2017-08-09T07:22:37Z</time>
      </trkpt>
      <trkpt lat="48.59175" lon="1.96599">
        <ele>109.73</ele>
        <time>2017-08-09T07:22:38Z</time>
      </trkpt>
      <trkpt lat="48.59174" lon="1.96599">
        <ele>112.13</ele>
        <time>2017-08-09T07:22:42Z</time>
      </trkpt>
      <trkpt lat="48.59173" lon="1.96599">
        <ele>113.57</ele>
        <time>2017-08-09T07:22:44Z</time>
      </trkpt>
      <trkpt lat="48.59169" lon="1.96594">
        <ele>115.98</ele>
        <time>2017-08-09T07:22:50Z</time>
      </trkpt>
      <trkpt lat="48.59163" lon="1.96583">
        <ele>119.34</ele>
        <time>2017-08-09T07:23:00Z</time>
      </trkpt>
      <trkpt lat="48.5916" lon="1.96578">
        <ele>120.3</ele>
        <time>2017-08-09T07:23:05Z</time>
      </trkpt>
      <trkpt lat="48.59154" lon="1.96579">
        <ele>121.26</ele>
        <time>2017-08-09T07:23:09Z</time>
      </trkpt>
      <trkpt lat="48.59153" lon="1.96579">
        <ele>120.3</ele>
        <time>2017-08-09T07:23:10Z</time>
      </trkpt>
      <trkpt lat="48.59149" lon="1.96587">
        <ele>121.74</ele>
        <time>2017-08-09T07:23:22Z</time>
      </trkpt>
      <trkpt lat="48.5915" lon="1.96598">
        <ele>122.22</ele>
        <time>2017-08-09T07:23:28Z</time>
      </trkpt>
      <trkpt lat="48.59148" lon="1.96628">
        <ele>122.22</ele>
        <time>2017-08-09T07:23:40Z</time>
      </trkpt>
      <trkpt lat="48.59147" lon="1.96646">
        <ele>122.22</ele>
        <time>2017-08-09T07:23:52Z</time>
      </trkpt>
      <trkpt lat="48.59148" lon="1.96673">
        <ele>121.74</ele>
        <time>2017-08-09T07:24:04Z</time>
      </trkpt>
      <trkpt lat="48.59151" lon="1.96698">
        <ele>122.22</ele>
        <time>2017-08-09T07:24:13Z</time>
      </trkpt>
      <trkpt lat="48.59146" lon="1.96727">
        <ele>121.74</ele>
        <time>2017-08-09T07:24:25Z</time>
      </trkpt>
      <trkpt lat="48.59145" lon="1.96743">
        <ele>121.74</ele>
        <time>2017-08-09T07:24:32Z</time>
      </trkpt>
      <trkpt lat="48.59134" lon="1.96759">
        <ele>121.26</ele>
        <time>2017-08-09T07:24:41Z</time>
      </trkpt>
      <trkpt lat="48.59123" lon="1.96778">
        <ele>120.78</ele>
        <time>2017-08-09T07:24:52Z</time>
      </trkpt>
      <trkpt lat="48.59121" lon="1.96789">
        <ele>120.3</ele>
        <time>2017-08-09T07:24:59Z</time>
      </trkpt>
      <trkpt lat="48.59118" lon="1.96806">
        <ele>119.82</ele>
        <time>2017-08-09T07:25:07Z</time>
      </trkpt>
      <trkpt lat="48.59115" lon="1.96821">
        <ele>119.82</ele>
        <time>2017-08-09T07:25:16Z</time>
      </trkpt>
      <trkpt lat="48.5911" lon="1.96842">
        <ele>119.82</ele>
        <time>2017-08-09T07:25:29Z</time>
      </trkpt>
      <trkpt lat="48.59105" lon="1.96866">
        <ele>119.82</ele>
        <time>2017-08-09T07:25:42Z</time>
      </trkpt>
      <trkpt lat="48.59097" lon="1.96889">
        <ele>119.34</ele>
        <time>2017-08-09T07:25:52Z</time>
      </trkpt>
      <trkpt lat="48.59093" lon="1.96906">
        <ele>119.34</ele>
        <time>2017-08-09T07:26:01Z</time>
      </trkpt>
      <trkpt lat="48.59088" lon="1.96936">
        <ele>119.34</ele>
        <time>2017-08-09T07:26:14Z</time>
      </trkpt>
      <trkpt lat="48.59085" lon="1.96942">
        <ele>118.86</ele>
        <time>2017-08-09T07:26:17Z</time>
      </trkpt>
      <trkpt lat="48.59077" lon="1.96962">
        <ele>119.34</ele>
        <time>2017-08-09T07:26:30Z</time>
      </trkpt>
      <trkpt lat="48.59077" lon="1.96962">
        <ele>119.34</ele>
        <time>2017-08-09T07:26:31Z</time>
      </trkpt>
      <trkpt lat="48.59076" lon="1.96978">
        <ele>119.34</ele>
        <time>2017-08-09T07:26:36Z</time>
      </trkpt>
      <trkpt lat="48.59071" lon="1.96994">
        <ele>119.34</ele>
        <time>2017-08-09T07:26:40Z</time>
      </trkpt>
      <trkpt lat="48.59065" lon="1.97015">
        <ele>119.34</ele>
        <time>2017-08-09T07:26:53Z</time>
      </trkpt>
      <trkpt lat="48.59066" lon="1.97018">
        <ele>118.86</ele>
        <time>2017-08-09T07:26:54Z</time>
      </trkpt>
      <trkpt lat="48.59065" lon="1.9703">
        <ele>119.34</ele>
        <time>2017-08-09T07:26:58Z</time>
      </trkpt>
      <trkpt lat="48.59056" lon="1.97062">
        <ele>118.38</ele>
        <time>2017-08-09T07:27:10Z</time>
      </trkpt>
      <trkpt lat="48.59048" lon="1.97084">
        <ele>118.38</ele>
        <time>2017-08-09T07:27:21Z</time>
      </trkpt>
      <trkpt lat="48.59046" lon="1.97095">
        <ele>117.9</ele>
        <time>2017-08-09T07:27:29Z</time>
      </trkpt>
      <trkpt lat="48.5904" lon="1.97129">
        <ele>117.42</ele>
        <time>2017-08-09T07:27:44Z</time>
      </trkpt>
      <trkpt lat="48.59036" lon="1.97154">
        <ele>117.42</ele>
        <time>2017-08-09T07:27:57Z</time>
      </trkpt>
      <trkpt lat="48.59035" lon="1.97184">
        <ele>117.42</ele>
        <time>2017-08-09T07:28:07Z</time>
      </trkpt>
      <trkpt lat="48.59026" lon="1.97209">
        <ele>116.94</ele>
        <time>2017-08-09T07:28:21Z</time>
      </trkpt>
      <trkpt lat="48.59025" lon="1.97215">
        <ele>116.94</ele>
        <time>2017-08-09T07:28:23Z</time>
      </trkpt>
      <trkpt lat="48.59025" lon="1.97226">
        <ele>117.42</ele>
        <time>2017-08-09T07:28:27Z</time>
      </trkpt>
      <trkpt lat="48.59028" lon="1.97236">
        <ele>116.94</ele>
        <time>2017-08-09T07:28:33Z</time>
      </trkpt>
      <trkpt lat="48.59032" lon="1.9725">
        <ele>117.42</ele>
        <time>2017-08-09T07:28:39Z</time>
      </trkpt>
      <trkpt lat="48.59033" lon="1.97266">
        <ele>117.42</ele>
        <time>2017-08-09T07:28:44Z</time>
      </trkpt>
      <trkpt lat="48.59044" lon="1.97282">
        <ele>117.9</ele>
        <time>2017-08-09T07:29:02Z</time>
      </trkpt>
      <trkpt lat="48.59046" lon="1.97285">
        <ele>117.9</ele>
        <time>2017-08-09T07:29:03Z</time>
      </trkpt>
      <trkpt lat="48.59055" lon="1.97293">
        <ele>118.38</ele>
        <time>2017-08-09T07:29:14Z</time>
      </trkpt>
      <trkpt lat="48.59058" lon="1.97297">
        <ele>118.38</ele>
        <time>2017-08-09T07:29:18Z</time>
      </trkpt>
      <trkpt lat="48.59073" lon="1.97316">
        <ele>118.86</ele>
        <time>2017-08-09T07:29:30Z</time>
      </trkpt>
      <trkpt lat="48.59083" lon="1.97321">
        <ele>119.34</ele>
        <time>2017-08-09T07:29:40Z</time>
      </trkpt>
      <trkpt lat="48.59092" lon="1.97335">
        <ele>119.82</ele>
        <time>2017-08-09T07:29:53Z</time>
      </trkpt>
      <trkpt lat="48.59104" lon="1.97342">
        <ele>119.82</ele>
        <time>2017-08-09T07:30:00Z</time>
      </trkpt>
      <trkpt lat="48.59108" lon="1.97345">
        <ele>119.82</ele>
        <time>2017-08-09T07:30:03Z</time>
      </trkpt>
      <trkpt lat="48.59112" lon="1.9735">
        <ele>120.3</ele>
        <time>2017-08-09T07:30:05Z</time>
      </trkpt>
      <trkpt lat="48.59126" lon="1.97365">
        <ele>120.3</ele>
        <time>2017-08-09T07:30:15Z</time>
      </trkpt>
      <trkpt lat="48.5913" lon="1.97367">
        <ele>120.78</ele>
        <time>2017-08-09T07:30:18Z</time>
      </trkpt>
      <trkpt lat="48.59151" lon="1.97384">
        <ele>121.26</ele>
        <time>2017-08-09T07:30:30Z</time>
      </trkpt>
      <trkpt lat="48.59173" lon="1.97398">
        <ele>121.74</ele>
        <time>2017-08-09T07:30:44Z</time>
      </trkpt>
      <trkpt lat="48.59179" lon="1.97402">
        <ele>122.22</ele>
        <time>2017-08-09T07:30:49Z</time>
      </trkpt>
      <trkpt lat="48.59185" lon="1.97405">
        <ele>122.22</ele>
        <time>2017-08-09T07:30:52Z</time>
      </trkpt>
      <trkpt lat="48.59202" lon="1.97418">
        <ele>123.67</ele>
        <time>2017-08-09T07:31:04Z</time>
      </trkpt>
      <trkpt lat="48.59204" lon="1.97419">
        <ele>123.67</ele>
        <time>2017-08-09T07:31:06Z</time>
      </trkpt>
      <trkpt lat="48.59222" lon="1.97426">
        <ele>124.15</ele>
        <time>2017-08-09T07:31:18Z</time>
      </trkpt>
      <trkpt lat="48.59235" lon="1.97436">
        <ele>125.59</ele>
        <time>2017-08-09T07:31:30Z</time>
      </trkpt>
      <trkpt lat="48.59238" lon="1.97435">
        <ele>126.07</ele>
        <time>2017-08-09T07:31:33Z</time>
      </trkpt>
      <trkpt lat="48.59249" lon="1.97433">
        <ele>126.07</ele>
        <time>2017-08-09T07:31:39Z</time>
      </trkpt>
      <trkpt lat="48.59263" lon="1.97433">
        <ele>127.03</ele>
        <time>2017-08-09T07:31:50Z</time>
      </trkpt>
      <trkpt lat="48.59274" lon="1.97429">
        <ele>127.51</ele>
        <time>2017-08-09T07:32:00Z</time>
      </trkpt>
      <trkpt lat="48.59286" lon="1.97424">
        <ele>128.95</ele>
        <time>2017-08-09T07:32:12Z</time>
      </trkpt>
      <trkpt lat="48.59294" lon="1.97423">
        <ele>129.43</ele>
        <time>2017-08-09T07:32:17Z</time>
      </trkpt>
      <trkpt lat="48.59307" lon="1.97422">
        <ele>130.88</ele>
        <time>2017-08-09T07:32:28Z</time>
      </trkpt>
      <trkpt lat="48.59309" lon="1.97422">
        <ele>130.88</ele>
        <time>2017-08-09T07:32:29Z</time>
      </trkpt>
      <trkpt lat="48.59323" lon="1.97423">
        <ele>131.84</ele>
        <time>2017-08-09T07:32:38Z</time>
      </trkpt>
      <trkpt lat="48.59336" lon="1.97423">
        <ele>132.8</ele>
        <time>2017-08-09T07:32:49Z</time>
      </trkpt>
      <trkpt lat="48.59349" lon="1.97425">
        <ele>133.28</ele>
        <time>2017-08-09T07:32:55Z</time>
      </trkpt>
      <trkpt lat="48.59364" lon="1.97429">
        <ele>133.76</ele>
        <time>2017-08-09T07:33:04Z</time>
      </trkpt>
      <trkpt lat="48.5937" lon="1.9743">
        <ele>134.72</ele>
        <time>2017-08-09T07:33:08Z</time>
      </trkpt>
      <trkpt lat="48.5938" lon="1.97428">
        <ele>134.72</ele>
        <time>2017-08-09T07:33:13Z</time>
      </trkpt>
      <trkpt lat="48.59398" lon="1.97431">
        <ele>136.16</ele>
        <time>2017-08-09T07:33:26Z</time>
      </trkpt>
      <trkpt lat="48.59404" lon="1.97434">
        <ele>136.16</ele>
        <time>2017-08-09T07:33:30Z</time>
      </trkpt>
      <trkpt lat="48.59416" lon="1.97434">
        <ele>136.64</ele>
        <time>2017-08-09T07:33:35Z</time>
      </trkpt>
      <trkpt lat="48.59428" lon="1.97434">
        <ele>137.61</ele>
        <time>2017-08-09T07:33:44Z</time>
      </trkpt>
      <trkpt lat="48.5943" lon="1.97433">
        <ele>137.61</ele>
        <time>2017-08-09T07:33:46Z</time>
      </trkpt>
      <trkpt lat="48.59442" lon="1.97434">
        <ele>139.05</ele>
        <time>2017-08-09T07:33:55Z</time>
      </trkpt>
      <trkpt lat="48.59458" lon="1.97436">
        <ele>139.53</ele>
        <time>2017-08-09T07:34:08Z</time>
      </trkpt>
      <trkpt lat="48.59462" lon="1.97437">
        <ele>140.01</ele>
        <time>2017-08-09T07:34:14Z</time>
      </trkpt>
      <trkpt lat="48.59471" lon="1.97441">
        <ele>140.49</ele>
        <time>2017-08-09T07:34:26Z</time>
      </trkpt>
      <trkpt lat="48.59471" lon="1.97441">
        <ele>140.49</ele>
        <time>2017-08-09T07:34:40Z</time>
      </trkpt>
      <trkpt lat="48.59472" lon="1.97441">
        <ele>140.49</ele>
        <time>2017-08-09T07:34:59Z</time>
      </trkpt>
      <trkpt lat="48.59473" lon="1.97442">
        <ele>140.49</ele>
        <time>2017-08-09T07:35:15Z</time>
      </trkpt>
      <trkpt lat="48.59473" lon="1.97448">
        <ele>140.97</ele>
        <time>2017-08-09T07:35:26Z</time>
      </trkpt>
      <trkpt lat="48.59473" lon="1.97449">
        <ele>140.97</ele>
        <time>2017-08-09T07:35:28Z</time>
      </trkpt>
      <trkpt lat="48.59472" lon="1.97452">
        <ele>140.97</ele>
        <time>2017-08-09T07:35:32Z</time>
      </trkpt>
      <trkpt lat="48.59471" lon="1.97461">
        <ele>141.45</ele>
        <time>2017-08-09T07:35:38Z</time>
      </trkpt>
      <trkpt lat="48.59471" lon="1.9747">
        <ele>141.45</ele>
        <time>2017-08-09T07:35:46Z</time>
      </trkpt>
      <trkpt lat="48.59474" lon="1.97478">
        <ele>141.93</ele>
        <time>2017-08-09T07:35:50Z</time>
      </trkpt>
      <trkpt lat="48.59477" lon="1.97484">
        <ele>142.41</ele>
        <time>2017-08-09T07:35:54Z</time>
      </trkpt>
      <trkpt lat="48.59477" lon="1.9749">
        <ele>142.41</ele>
        <time>2017-08-09T07:35:57Z</time>
      </trkpt>
      <trkpt lat="48.5948" lon="1.97502">
        <ele>142.89</ele>
        <time>2017-08-09T07:36:02Z</time>
      </trkpt>
      <trkpt lat="48.59475" lon="1.97518">
        <ele>143.85</ele>
        <time>2017-08-09T07:36:16Z</time>
      </trkpt>
      <trkpt lat="48.5946" lon="1.97541">
        <ele>144.82</ele>
        <time>2017-08-09T07:36:25Z</time>
      </trkpt>
      <trkpt lat="48.5945" lon="1.97551">
        <ele>145.3</ele>
        <time>2017-08-09T07:36:31Z</time>
      </trkpt>
      <trkpt lat="48.59445" lon="1.97561">
        <ele>146.26</ele>
        <time>2017-08-09T07:36:41Z</time>
      </trkpt>
      <trkpt lat="48.59442" lon="1.97574">
        <ele>147.22</ele>
        <time>2017-08-09T07:36:46Z</time>
      </trkpt>
      <trkpt lat="48.59435" lon="1.97599">
        <ele>148.18</ele>
        <time>2017-08-09T07:36:58Z</time>
      </trkpt>
      <trkpt lat="48.59435" lon="1.97602">
        <ele>148.66</ele>
        <time>2017-08-09T07:37:00Z</time>
      </trkpt>
      <trkpt lat="48.59433" lon="1.97633">
        <ele>150.58</ele>
        <time>2017-08-09T07:37:14Z</time>
      </trkpt>
      <trkpt lat="48.59435" lon="1.97661">
        <ele>151.54</ele>
        <time>2017-08-09T07:37:26Z</time>
      </trkpt>
      <trkpt lat="48.59432" lon="1.9768">
        <ele>153.47</ele>
        <time>2017-08-09T07:37:35Z</time>
      </trkpt>
      <trkpt lat="48.59424" lon="1.97696">
        <ele>154.43</ele>
        <time>2017-08-09T07:37:42Z</time>
      </trkpt>
      <trkpt lat="48.59428" lon="1.97718">
        <ele>155.87</ele>
        <time>2017-08-09T07:37:52Z</time>
      </trkpt>
      <trkpt lat="48.5943" lon="1.97733">
        <ele>157.31</ele>
        <time>2017-08-09T07:38:03Z</time>
      </trkpt>
      <trkpt lat="48.59433" lon="1.97738">
        <ele>157.79</ele>
        <time>2017-08-09T07:38:07Z</time>
      </trkpt>
      <trkpt lat="48.5944" lon="1.97755">
        <ele>158.75</ele>
        <time>2017-08-09T07:38:19Z</time>
      </trkpt>
      <trkpt lat="48.59441" lon="1.97773">
        <ele>159.72</ele>
        <time>2017-08-09T07:38:30Z</time>
      </trkpt>
      <trkpt lat="48.59442" lon="1.97775">
        <ele>159.72</ele>
        <time>2017-08-09T07:38:31Z</time>
      </trkpt>
      <trkpt lat="48.59446" lon="1.97786">
        <ele>159.72</ele>
        <time>2017-08-09T07:38:34Z</time>
      </trkpt>
      <trkpt lat="48.59449" lon="1.97793">
        <ele>159.72</ele>
        <time>2017-08-09T07:38:37Z</time>
      </trkpt>
      <trkpt lat="48.59452" lon="1.97806">
        <ele>159.72</ele>
        <time>2017-08-09T07:38:42Z</time>
      </trkpt>
      <trkpt lat="48.59458" lon="1.97819">
        <ele>159.72</ele>
        <time>2017-08-09T07:38:49Z</time>
      </trkpt>
      <trkpt lat="48.59462" lon="1.97824">
        <ele>159.72</ele>
        <time>2017-08-09T07:38:53Z</time>
      </trkpt>
      <trkpt lat="48.59468" lon="1.97835">
        <ele>159.24</ele>
        <time>2017-08-09T07:39:04Z</time>
      </trkpt>
      <trkpt lat="48.59468" lon="1.97841">
        <ele>159.72</ele>
        <time>2017-08-09T07:39:09Z</time>
      </trkpt>
      <trkpt lat="48.5947" lon="1.97846">
        <ele>159.24</ele>
        <time>2017-08-09T07:39:12Z</time>
      </trkpt>
      <trkpt lat="48.5948" lon="1.97864">
        <ele>159.24</ele>
        <time>2017-08-09T07:39:22Z</time>
      </trkpt>
      <trkpt lat="48.59489" lon="1.97887">
        <ele>159.24</ele>
        <time>2017-08-09T07:39:35Z</time>
      </trkpt>
      <trkpt lat="48.59491" lon="1.97905">
        <ele>159.24</ele>
        <time>2017-08-09T07:39:43Z</time>
      </trkpt>
      <trkpt lat="48.59498" lon="1.97922">
        <ele>158.75</ele>
        <time>2017-08-09T07:39:51Z</time>
      </trkpt>
      <trkpt lat="48.59499" lon="1.97924">
        <ele>158.75</ele>
        <time>2017-08-09T07:39:54Z</time>
      </trkpt>
      <trkpt lat="48.59501" lon="1.9793">
        <ele>158.75</ele>
        <time>2017-08-09T07:39:57Z</time>
      </trkpt>
      <trkpt lat="48.59503" lon="1.97936">
        <ele>158.27</ele>
        <time>2017-08-09T07:40:00Z</time>
      </trkpt>
      <trkpt lat="48.59504" lon="1.97955">
        <ele>158.27</ele>
        <time>2017-08-09T07:40:06Z</time>
      </trkpt>
      <trkpt lat="48.59513" lon="1.97975">
        <ele>157.79</ele>
        <time>2017-08-09T07:40:18Z</time>
      </trkpt>
      <trkpt lat="48.59521" lon="1.97995">
        <ele>157.31</ele>
        <time>2017-08-09T07:40:30Z</time>
      </trkpt>
      <trkpt lat="48.59537" lon="1.98017">
        <ele>157.31</ele>
        <time>2017-08-09T07:40:41Z</time>
      </trkpt>
      <trkpt lat="48.59553" lon="1.98034">
        <ele>156.35</ele>
        <time>2017-08-09T07:40:51Z</time>
      </trkpt>
      <trkpt lat="48.59561" lon="1.98036">
        <ele>155.87</ele>
        <time>2017-08-09T07:41:00Z</time>
      </trkpt>
      <trkpt lat="48.59568" lon="1.98038">
        <ele>155.39</ele>
        <time>2017-08-09T07:41:04Z</time>
      </trkpt>
      <trkpt lat="48.59574" lon="1.98039">
        <ele>155.39</ele>
        <time>2017-08-09T07:41:08Z</time>
      </trkpt>
      <trkpt lat="48.59587" lon="1.98047">
        <ele>154.43</ele>
        <time>2017-08-09T07:41:16Z</time>
      </trkpt>
      <trkpt lat="48.5959" lon="1.9805">
        <ele>153.95</ele>
        <time>2017-08-09T07:41:18Z</time>
      </trkpt>
      <trkpt lat="48.59601" lon="1.9806">
        <ele>153.47</ele>
        <time>2017-08-09T07:41:25Z</time>
      </trkpt>
      <trkpt lat="48.59614" lon="1.98075">
        <ele>152.99</ele>
        <time>2017-08-09T07:41:33Z</time>
      </trkpt>
      <trkpt lat="48.59626" lon="1.98089">
        <ele>152.03</ele>
        <time>2017-08-09T07:41:45Z</time>
      </trkpt>
      <trkpt lat="48.59636" lon="1.98107">
        <ele>151.54</ele>
        <time>2017-08-09T07:41:59Z</time>
      </trkpt>
      <trkpt lat="48.59642" lon="1.98112">
        <ele>151.54</ele>
        <time>2017-08-09T07:42:02Z</time>
      </trkpt>
      <trkpt lat="48.59654" lon="1.98128">
        <ele>151.06</ele>
        <time>2017-08-09T07:42:10Z</time>
      </trkpt>
      <trkpt lat="48.59664" lon="1.98145">
        <ele>150.58</ele>
        <time>2017-08-09T07:42:22Z</time>
      </trkpt>
      <trkpt lat="48.59667" lon="1.9815">
        <ele>150.58</ele>
        <time>2017-08-09T07:42:25Z</time>
      </trkpt>
      <trkpt lat="48.59685" lon="1.98176">
        <ele>149.14</ele>
        <time>2017-08-09T07:42:41Z</time>
      </trkpt>
      <trkpt lat="48.59696" lon="1.98187">
        <ele>147.7</ele>
        <time>2017-08-09T07:42:55Z</time>
      </trkpt>
      <trkpt lat="48.5971" lon="1.98199">
        <ele>146.26</ele>
        <time>2017-08-09T07:43:03Z</time>
      </trkpt>
      <trkpt lat="48.59722" lon="1.98205">
        <ele>144.82</ele>
        <time>2017-08-09T07:43:14Z</time>
      </trkpt>
      <trkpt lat="48.59739" lon="1.98213">
        <ele>142.41</ele>
        <time>2017-08-09T07:43:26Z</time>
      </trkpt>
      <trkpt lat="48.59748" lon="1.98217">
        <ele>142.41</ele>
        <time>2017-08-09T07:43:30Z</time>
      </trkpt>
      <trkpt lat="48.59765" lon="1.98222">
        <ele>140.49</ele>
        <time>2017-08-09T07:43:41Z</time>
      </trkpt>
      <trkpt lat="48.59777" lon="1.98235">
        <ele>139.53</ele>
        <time>2017-08-09T07:43:55Z</time>
      </trkpt>
      <trkpt lat="48.59784" lon="1.98247">
        <ele>137.61</ele>
        <time>2017-08-09T07:44:03Z</time>
      </trkpt>
      <trkpt lat="48.59804" lon="1.98255">
        <ele>134.72</ele>
        <time>2017-08-09T07:44:16Z</time>
      </trkpt>
      <trkpt lat="48.5981" lon="1.98254">
        <ele>132.32</ele>
        <time>2017-08-09T07:44:28Z</time>
      </trkpt>
      <trkpt lat="48.59816" lon="1.98258">
        <ele>131.36</ele>
        <time>2017-08-09T07:44:31Z</time>
      </trkpt>
      <trkpt lat="48.59836" lon="1.98267">
        <ele>129.43</ele>
        <time>2017-08-09T07:44:43Z</time>
      </trkpt>
      <trkpt lat="48.59846" lon="1.98269">
        <ele>127.51</ele>
        <time>2017-08-09T07:44:55Z</time>
      </trkpt>
      <trkpt lat="48.59858" lon="1.98276">
        <ele>126.07</ele>
        <time>2017-08-09T07:45:06Z</time>
      </trkpt>
      <trkpt lat="48.59859" lon="1.98276">
        <ele>125.59</ele>
        <time>2017-08-09T07:45:08Z</time>
      </trkpt>
      <trkpt lat="48.5988" lon="1.98292">
        <ele>124.63</ele>
        <time>2017-08-09T07:45:18Z</time>
      </trkpt>
      <trkpt lat="48.59884" lon="1.98297">
        <ele>124.15</ele>
        <time>2017-08-09T07:45:25Z</time>
      </trkpt>
      <trkpt lat="48.59886" lon="1.98303">
        <ele>123.67</ele>
        <time>2017-08-09T07:45:28Z</time>
      </trkpt>
      <trkpt lat="48.59876" lon="1.98326">
        <ele>124.63</ele>
        <time>2017-08-09T07:45:39Z</time>
      </trkpt>
      <trkpt lat="48.59875" lon="1.98329">
        <ele>124.63</ele>
        <time>2017-08-09T07:45:42Z</time>
      </trkpt>
      <trkpt lat="48.59874" lon="1.98338">
        <ele>124.63</ele>
        <time>2017-08-09T07:45:48Z</time>
      </trkpt>
      <trkpt lat="48.59865" lon="1.98361">
        <ele>124.63</ele>
        <time>2017-08-09T07:45:59Z</time>
      </trkpt>
      <trkpt lat="48.59854" lon="1.98382">
        <ele>123.67</ele>
        <time>2017-08-09T07:46:08Z</time>
      </trkpt>
      <trkpt lat="48.59846" lon="1.98399">
        <ele>122.71</ele>
        <time>2017-08-09T07:46:21Z</time>
      </trkpt>
      <trkpt lat="48.59845" lon="1.98403">
        <ele>122.71</ele>
        <time>2017-08-09T07:46:23Z</time>
      </trkpt>
      <trkpt lat="48.59846" lon="1.98434">
        <ele>125.11</ele>
        <time>2017-08-09T07:46:37Z</time>
      </trkpt>
      <trkpt lat="48.59844" lon="1.98445">
        <ele>125.59</ele>
        <time>2017-08-09T07:46:44Z</time>
      </trkpt>
      <trkpt lat="48.59851" lon="1.98476">
        <ele>126.55</ele>
        <time>2017-08-09T07:46:58Z</time>
      </trkpt>
      <trkpt lat="48.59845" lon="1.98492">
        <ele>127.99</ele>
        <time>2017-08-09T07:47:09Z</time>
      </trkpt>
      <trkpt lat="48.59835" lon="1.98506">
        <ele>129.92</ele>
        <time>2017-08-09T07:47:21Z</time>
      </trkpt>
      <trkpt lat="48.59831" lon="1.98509">
        <ele>131.36</ele>
        <time>2017-08-09T07:47:25Z</time>
      </trkpt>
      <trkpt lat="48.59826" lon="1.9851">
        <ele>133.76</ele>
        <time>2017-08-09T07:47:33Z</time>
      </trkpt>
      <trkpt lat="48.59825" lon="1.9851">
        <ele>133.76</ele>
        <time>2017-08-09T07:47:35Z</time>
      </trkpt>
      <trkpt lat="48.59817" lon="1.98508">
        <ele>137.13</ele>
        <time>2017-08-09T07:47:45Z</time>
      </trkpt>
      <trkpt lat="48.59817" lon="1.98508">
        <ele>137.13</ele>
        <time>2017-08-09T07:47:46Z</time>
      </trkpt>
      <trkpt lat="48.59803" lon="1.98513">
        <ele>140.49</ele>
        <time>2017-08-09T07:47:57Z</time>
      </trkpt>
      <trkpt lat="48.598" lon="1.98515">
        <ele>140.01</ele>
        <time>2017-08-09T07:48:00Z</time>
      </trkpt>
      <trkpt lat="48.59791" lon="1.98516">
        <ele>140.97</ele>
        <time>2017-08-09T07:48:08Z</time>
      </trkpt>
      <trkpt lat="48.5978" lon="1.98523">
        <ele>142.41</ele>
        <time>2017-08-09T07:48:16Z</time>
      </trkpt>
      <trkpt lat="48.59767" lon="1.9853">
        <ele>142.41</ele>
        <time>2017-08-09T07:48:25Z</time>
      </trkpt>
      <trkpt lat="48.59751" lon="1.98538">
        <ele>142.89</ele>
        <time>2017-08-09T07:48:38Z</time>
      </trkpt>
      <trkpt lat="48.59744" lon="1.9854">
        <ele>142.89</ele>
        <time>2017-08-09T07:48:45Z</time>
      </trkpt>
      <trkpt lat="48.59735" lon="1.9855">
        <ele>142.89</ele>
        <time>2017-08-09T07:49:01Z</time>
      </trkpt>
      <trkpt lat="48.59735" lon="1.9855">
        <ele>142.89</ele>
        <time>2017-08-09T07:49:26Z</time>
      </trkpt>
      <trkpt lat="48.59735" lon="1.9855">
        <ele>142.89</ele>
        <time>2017-08-09T07:49:47Z</time>
      </trkpt>
      <trkpt lat="48.59733" lon="1.98552">
        <ele>142.41</ele>
        <time>2017-08-09T07:50:13Z</time>
      </trkpt>
      <trkpt lat="48.59732" lon="1.98553">
        <ele>142.41</ele>
        <time>2017-08-09T07:50:37Z</time>
      </trkpt>
      <trkpt lat="48.5973" lon="1.98554">
        <ele>142.41</ele>
        <time>2017-08-09T07:50:50Z</time>
      </trkpt>
      <trkpt lat="48.5973" lon="1.98556">
        <ele>141.93</ele>
        <time>2017-08-09T07:51:10Z</time>
      </trkpt>
      <trkpt lat="48.59728" lon="1.98557">
        <ele>142.41</ele>
        <time>2017-08-09T07:51:20Z</time>
      </trkpt>
      <trkpt lat="48.59719" lon="1.98567">
        <ele>141.93</ele>
        <time>2017-08-09T07:51:33Z</time>
      </trkpt>
      <trkpt lat="48.59716" lon="1.98569">
        <ele>141.93</ele>
        <time>2017-08-09T07:51:39Z</time>
      </trkpt>
      <trkpt lat="48.59711" lon="1.98575">
        <ele>140.49</ele>
        <time>2017-08-09T07:51:51Z</time>
      </trkpt>
      <trkpt lat="48.59711" lon="1.98577">
        <ele>139.05</ele>
        <time>2017-08-09T07:52:00Z</time>
      </trkpt>
      <trkpt lat="48.59709" lon="1.98594">
        <ele>136.64</ele>
        <time>2017-08-09T07:52:10Z</time>
      </trkpt>
      <trkpt lat="48.59711" lon="1.98607">
        <ele>133.28</ele>
        <time>2017-08-09T07:52:21Z</time>
      </trkpt>
      <trkpt lat="48.59705" lon="1.9862">
        <ele>131.36</ele>
        <time>2017-08-09T07:52:26Z</time>
      </trkpt>
      <trkpt lat="48.59705" lon="1.98627">
        <ele>129.43</ele>
        <time>2017-08-09T07:52:30Z</time>
      </trkpt>
      <trkpt lat="48.59692" lon="1.9865">
        <ele>127.03</ele>
        <time>2017-08-09T07:52:42Z</time>
      </trkpt>
      <trkpt lat="48.5968" lon="1.98669">
        <ele>123.67</ele>
        <time>2017-08-09T07:52:57Z</time>
      </trkpt>
      <trkpt lat="48.59678" lon="1.98677">
        <ele>122.71</ele>
        <time>2017-08-09T07:53:06Z</time>
      </trkpt>
      <trkpt lat="48.59675" lon="1.98682">
        <ele>122.22</ele>
        <time>2017-08-09T07:53:09Z</time>
      </trkpt>
      <trkpt lat="48.5966" lon="1.98689">
        <ele>122.22</ele>
        <time>2017-08-09T07:53:22Z</time>
      </trkpt>
      <trkpt lat="48.59647" lon="1.98681">
        <ele>122.22</ele>
        <time>2017-08-09T07:53:32Z</time>
      </trkpt>
      <trkpt lat="48.59646" lon="1.98681">
        <ele>122.71</ele>
        <time>2017-08-09T07:53:35Z</time>
      </trkpt>
      <trkpt lat="48.59637" lon="1.98681">
        <ele>122.71</ele>
        <time>2017-08-09T07:53:41Z</time>
      </trkpt>
      <trkpt lat="48.59636" lon="1.98684">
        <ele>122.22</ele>
        <time>2017-08-09T07:53:43Z</time>
      </trkpt>
      <trkpt lat="48.59623" lon="1.98705">
        <ele>121.26</ele>
        <time>2017-08-09T07:53:57Z</time>
      </trkpt>
      <trkpt lat="48.59623" lon="1.98706">
        <ele>122.22</ele>
        <time>2017-08-09T07:53:58Z</time>
      </trkpt>
      <trkpt lat="48.59621" lon="1.98712">
        <ele>121.26</ele>
        <time>2017-08-09T07:54:01Z</time>
      </trkpt>
      <trkpt lat="48.59619" lon="1.98717">
        <ele>120.78</ele>
        <time>2017-08-09T07:54:04Z</time>
      </trkpt>
      <trkpt lat="48.59592" lon="1.9874">
        <ele>119.82</ele>
        <time>2017-08-09T07:54:17Z</time>
      </trkpt>
      <trkpt lat="48.59585" lon="1.98753">
        <ele>120.3</ele>
        <time>2017-08-09T07:54:26Z</time>
      </trkpt>
      <trkpt lat="48.59585" lon="1.98756">
        <ele>120.78</ele>
        <time>2017-08-09T07:54:28Z</time>
      </trkpt>
      <trkpt lat="48.59579" lon="1.98762">
        <ele>121.26</ele>
        <time>2017-08-09T07:54:33Z</time>
      </trkpt>
      <trkpt lat="48.59576" lon="1.98764">
        <ele>121.26</ele>
        <time>2017-08-09T07:54:35Z</time>
      </trkpt>
      <trkpt lat="48.59566" lon="1.98769">
        <ele>121.74</ele>
        <time>2017-08-09T07:54:44Z</time>
      </trkpt>
      <trkpt lat="48.59553" lon="1.98792">
        <ele>121.26</ele>
        <time>2017-08-09T07:54:55Z</time>
      </trkpt>
      <trkpt lat="48.59557" lon="1.98801">
        <ele>120.78</ele>
        <time>2017-08-09T07:55:06Z</time>
      </trkpt>
      <trkpt lat="48.59563" lon="1.98798">
        <ele>121.26</ele>
        <time>2017-08-09T07:55:11Z</time>
      </trkpt>
      <trkpt lat="48.59579" lon="1.98796">
        <ele>121.26</ele>
        <time>2017-08-09T07:55:25Z</time>
      </trkpt>
      <trkpt lat="48.59582" lon="1.98796">
        <ele>121.26</ele>
        <time>2017-08-09T07:55:27Z</time>
      </trkpt>
      <trkpt lat="48.59585" lon="1.98796">
        <ele>121.26</ele>
        <time>2017-08-09T07:55:29Z</time>
      </trkpt>
      <trkpt lat="48.59606" lon="1.98792">
        <ele>120.3</ele>
        <time>2017-08-09T07:55:42Z</time>
      </trkpt>
      <trkpt lat="48.59623" lon="1.9879">
        <ele>118.86</ele>
        <time>2017-08-09T07:55:54Z</time>
      </trkpt>
      <trkpt lat="48.59624" lon="1.98791">
        <ele>118.38</ele>
        <time>2017-08-09T07:55:55Z</time>
      </trkpt>
      <trkpt lat="48.59627" lon="1.98791">
        <ele>118.86</ele>
        <time>2017-08-09T07:55:58Z</time>
      </trkpt>
      <trkpt lat="48.59639" lon="1.98791">
        <ele>116.94</ele>
        <time>2017-08-09T07:56:11Z</time>
      </trkpt>
      <trkpt lat="48.59645" lon="1.9879">
        <ele>116.46</ele>
        <time>2017-08-09T07:56:16Z</time>
      </trkpt>
      <trkpt lat="48.5965" lon="1.98789">
        <ele>116.46</ele>
        <time>2017-08-09T07:56:19Z</time>
      </trkpt>
      <trkpt lat="48.59669" lon="1.98789">
        <ele>115.01</ele>
        <time>2017-08-09T07:56:29Z</time>
      </trkpt>
      <trkpt lat="48.59679" lon="1.98785">
        <ele>114.05</ele>
        <time>2017-08-09T07:56:41Z</time>
      </trkpt>
      <trkpt lat="48.59699" lon="1.98789">
        <ele>113.57</ele>
        <time>2017-08-09T07:56:50Z</time>
      </trkpt>
      <trkpt lat="48.59721" lon="1.98792">
        <ele>112.61</ele>
        <time>2017-08-09T07:57:03Z</time>
      </trkpt>
      <trkpt lat="48.59733" lon="1.98792">
        <ele>112.13</ele>
        <time>2017-08-09T07:57:15Z</time>
      </trkpt>
      <trkpt lat="48.59746" lon="1.98791">
        <ele>111.65</ele>
        <time>2017-08-09T07:57:24Z</time>
      </trkpt>
      <trkpt lat="48.59769" lon="1.98794">
        <ele>111.17</ele>
        <time>2017-08-09T07:57:37Z</time>
      </trkpt>
      <trkpt lat="48.59784" lon="1.98796">
        <ele>111.17</ele>
        <time>2017-08-09T07:57:44Z</time>
      </trkpt>
      <trkpt lat="48.59801" lon="1.98799">
        <ele>109.73</ele>
        <time>2017-08-09T07:57:55Z</time>
      </trkpt>
      <trkpt lat="48.59808" lon="1.98798">
        <ele>109.25</ele>
        <time>2017-08-09T07:58:04Z</time>
      </trkpt>
      <trkpt lat="48.59822" lon="1.98793">
        <ele>108.77</ele>
        <time>2017-08-09T07:58:12Z</time>
      </trkpt>
      <trkpt lat="48.59841" lon="1.98788">
        <ele>107.81</ele>
        <time>2017-08-09T07:58:23Z</time>
      </trkpt>
      <trkpt lat="48.59857" lon="1.98785">
        <ele>107.32</ele>
        <time>2017-08-09T07:58:30Z</time>
      </trkpt>
      <trkpt lat="48.59871" lon="1.98785">
        <ele>106.84</ele>
        <time>2017-08-09T07:58:40Z</time>
      </trkpt>
      <trkpt lat="48.59889" lon="1.98779">
        <ele>105.88</ele>
        <time>2017-08-09T07:58:54Z</time>
      </trkpt>
      <trkpt lat="48.5989" lon="1.98777">
        <ele>105.88</ele>
        <time>2017-08-09T07:58:56Z</time>
      </trkpt>
      <trkpt lat="48.59899" lon="1.98773">
        <ele>105.4</ele>
        <time>2017-08-09T07:59:03Z</time>
      </trkpt>
      <trkpt lat="48.59928" lon="1.98772">
        <ele>104.92</ele>
        <time>2017-08-09T07:59:17Z</time>
      </trkpt>
      <trkpt lat="48.59933" lon="1.98771">
        <ele>104.92</ele>
        <time>2017-08-09T07:59:22Z</time>
      </trkpt>
      <trkpt lat="48.59943" lon="1.98769">
        <ele>104.44</ele>
        <time>2017-08-09T07:59:26Z</time>
      </trkpt>
      <trkpt lat="48.59966" lon="1.98764">
        <ele>103.96</ele>
        <time>2017-08-09T07:59:33Z</time>
      </trkpt>
      <trkpt lat="48.59977" lon="1.98762">
        <ele>103.96</ele>
        <time>2017-08-09T07:59:38Z</time>
      </trkpt>
      <trkpt lat="48.59986" lon="1.98761">
        <ele>103.96</ele>
        <time>2017-08-09T07:59:48Z</time>
      </trkpt>
      <trkpt lat="48.6" lon="1.98752">
        <ele>103.48</ele>
        <time>2017-08-09T07:59:59Z</time>
      </trkpt>
      <trkpt lat="48.60001" lon="1.98751">
        <ele>103.48</ele>
        <time>2017-08-09T08:00:00Z</time>
      </trkpt>
      <trkpt lat="48.60019" lon="1.98748">
        <ele>103.48</ele>
        <time>2017-08-09T08:00:14Z</time>
      </trkpt>
      <trkpt lat="48.60022" lon="1.98746">
        <ele>103.48</ele>
        <time>2017-08-09T08:00:20Z</time>
      </trkpt>
      <trkpt lat="48.60025" lon="1.98745">
        <ele>103</ele>
        <time>2017-08-09T08:00:22Z</time>
      </trkpt>
      <trkpt lat="48.60032" lon="1.98745">
        <ele>103.48</ele>
        <time>2017-08-09T08:00:27Z</time>
      </trkpt>
      <trkpt lat="48.60053" lon="1.9874">
        <ele>103.48</ele>
        <time>2017-08-09T08:00:38Z</time>
      </trkpt>
      <trkpt lat="48.60064" lon="1.98738">
        <ele>103.96</ele>
        <time>2017-08-09T08:00:48Z</time>
      </trkpt>
      <trkpt lat="48.60078" lon="1.98727">
        <ele>104.92</ele>
        <time>2017-08-09T08:00:59Z</time>
      </trkpt>
      <trkpt lat="48.60104" lon="1.98709">
        <ele>105.4</ele>
        <time>2017-08-09T08:01:14Z</time>
      </trkpt>
      <trkpt lat="48.60118" lon="1.98703">
        <ele>105.88</ele>
        <time>2017-08-09T08:01:25Z</time>
      </trkpt>
      <trkpt lat="48.60121" lon="1.98703">
        <ele>105.88</ele>
        <time>2017-08-09T08:01:27Z</time>
      </trkpt>
      <trkpt lat="48.60135" lon="1.98695">
        <ele>105.88</ele>
        <time>2017-08-09T08:01:39Z</time>
      </trkpt>
      <trkpt lat="48.60138" lon="1.98689">
        <ele>106.36</ele>
        <time>2017-08-09T08:01:51Z</time>
      </trkpt>
      <trkpt lat="48.60133" lon="1.98687">
        <ele>106.36</ele>
        <time>2017-08-09T08:02:09Z</time>
      </trkpt>
      <trkpt lat="48.60126" lon="1.9868">
        <ele>106.36</ele>
        <time>2017-08-09T08:02:32Z</time>
      </trkpt>
      <trkpt lat="48.60127" lon="1.98677">
        <ele>106.84</ele>
        <time>2017-08-09T08:02:55Z</time>
      </trkpt>
      <trkpt lat="48.60133" lon="1.98673">
        <ele>106.36</ele>
        <time>2017-08-09T08:03:07Z</time>
      </trkpt>
      <trkpt lat="48.60141" lon="1.98665">
        <ele>105.88</ele>
        <time>2017-08-09T08:03:21Z</time>
      </trkpt>
      <trkpt lat="48.60143" lon="1.9866">
        <ele>105.4</ele>
        <time>2017-08-09T08:03:37Z</time>
      </trkpt>
      <trkpt lat="48.60143" lon="1.9866">
        <ele>105.4</ele>
        <time>2017-08-09T08:03:39Z</time>
      </trkpt>
      <trkpt lat="48.60147" lon="1.98658">
        <ele>105.4</ele>
        <time>2017-08-09T08:03:43Z</time>
      </trkpt>
      <trkpt lat="48.60154" lon="1.98654">
        <ele>104.92</ele>
        <time>2017-08-09T08:03:47Z</time>
      </trkpt>
      <trkpt lat="48.60157" lon="1.9865">
        <ele>104.92</ele>
        <time>2017-08-09T08:03:51Z</time>
      </trkpt>
      <trkpt lat="48.60169" lon="1.9864">
        <ele>104.44</ele>
        <time>2017-08-09T08:04:00Z</time>
      </trkpt>
      <trkpt lat="48.60182" lon="1.98637">
        <ele>103.96</ele>
        <time>2017-08-09T08:04:03Z</time>
      </trkpt>
      <trkpt lat="48.60198" lon="1.98632">
        <ele>103.48</ele>
        <time>2017-08-09T08:04:14Z</time>
      </trkpt>
      <trkpt lat="48.60209" lon="1.98617">
        <ele>102.52</ele>
        <time>2017-08-09T08:04:28Z</time>
      </trkpt>
      <trkpt lat="48.6021" lon="1.98617">
        <ele>102.52</ele>
        <time>2017-08-09T08:04:29Z</time>
      </trkpt>
      <trkpt lat="48.60226" lon="1.98597">
        <ele>102.04</ele>
        <time>2017-08-09T08:04:43Z</time>
      </trkpt>
      <trkpt lat="48.60244" lon="1.9858">
        <ele>101.56</ele>
        <time>2017-08-09T08:04:56Z</time>
      </trkpt>
      <trkpt lat="48.60251" lon="1.98569">
        <ele>101.08</ele>
        <time>2017-08-09T08:05:06Z</time>
      </trkpt>
      <trkpt lat="48.60266" lon="1.98561">
        <ele>101.08</ele>
        <time>2017-08-09T08:05:14Z</time>
      </trkpt>
      <trkpt lat="48.6027" lon="1.98552">
        <ele>101.08</ele>
        <time>2017-08-09T08:05:18Z</time>
      </trkpt>
      <trkpt lat="48.60281" lon="1.98534">
        <ele>101.08</ele>
        <time>2017-08-09T08:05:31Z</time>
      </trkpt>
      <trkpt lat="48.60281" lon="1.98532">
        <ele>101.08</ele>
        <time>2017-08-09T08:05:32Z</time>
      </trkpt>
      <trkpt lat="48.60284" lon="1.98528">
        <ele>101.08</ele>
        <time>2017-08-09T08:05:34Z</time>
      </trkpt>
      <trkpt lat="48.60302" lon="1.98499">
        <ele>101.56</ele>
        <time>2017-08-09T08:05:47Z</time>
      </trkpt>
      <trkpt lat="48.60304" lon="1.98486">
        <ele>102.52</ele>
        <time>2017-08-09T08:05:58Z</time>
      </trkpt>
      <trkpt lat="48.60309" lon="1.98478">
        <ele>102.52</ele>
        <time>2017-08-09T08:06:01Z</time>
      </trkpt>
      <trkpt lat="48.60327" lon="1.98461">
        <ele>102.04</ele>
        <time>2017-08-09T08:06:11Z</time>
      </trkpt>
      <trkpt lat="48.6033" lon="1.98459">
        <ele>102.04</ele>
        <time>2017-08-09T08:06:14Z</time>
      </trkpt>
      <trkpt lat="48.60343" lon="1.98453">
        <ele>102.04</ele>
        <time>2017-08-09T08:06:21Z</time>
      </trkpt>
      <trkpt lat="48.60357" lon="1.98447">
        <ele>101.56</ele>
        <time>2017-08-09T08:06:33Z</time>
      </trkpt>
      <trkpt lat="48.60366" lon="1.98431">
        <ele>101.08</ele>
        <time>2017-08-09T08:06:41Z</time>
      </trkpt>
      <trkpt lat="48.60369" lon="1.98421">
        <ele>100.11</ele>
        <time>2017-08-09T08:06:53Z</time>
      </trkpt>
      <trkpt lat="48.60376" lon="1.98414">
        <ele>99.15</ele>
        <time>2017-08-09T08:07:00Z</time>
      </trkpt>
      <trkpt lat="48.60379" lon="1.98413">
        <ele>98.67</ele>
        <time>2017-08-09T08:07:02Z</time>
      </trkpt>
      <trkpt lat="48.60398" lon="1.98402">
        <ele>98.19</ele>
        <time>2017-08-09T08:07:13Z</time>
      </trkpt>
      <trkpt lat="48.60404" lon="1.984">
        <ele>97.71</ele>
        <time>2017-08-09T08:07:27Z</time>
      </trkpt>
      <trkpt lat="48.60414" lon="1.98395">
        <ele>97.71</ele>
        <time>2017-08-09T08:07:33Z</time>
      </trkpt>
      <trkpt lat="48.60437" lon="1.98387">
        <ele>97.23</ele>
        <time>2017-08-09T08:07:45Z</time>
      </trkpt>
      <trkpt lat="48.60452" lon="1.9838">
        <ele>97.23</ele>
        <time>2017-08-09T08:07:55Z</time>
      </trkpt>
      <trkpt lat="48.60459" lon="1.98375">
        <ele>97.23</ele>
        <time>2017-08-09T08:08:05Z</time>
      </trkpt>
      <trkpt lat="48.60467" lon="1.98375">
        <ele>97.23</ele>
        <time>2017-08-09T08:08:15Z</time>
      </trkpt>
      <trkpt lat="48.60469" lon="1.98374">
        <ele>97.23</ele>
        <time>2017-08-09T08:08:16Z</time>
      </trkpt>
      <trkpt lat="48.60493" lon="1.98372">
        <ele>97.23</ele>
        <time>2017-08-09T08:08:28Z</time>
      </trkpt>
      <trkpt lat="48.60517" lon="1.9837">
        <ele>97.71</ele>
        <time>2017-08-09T08:08:39Z</time>
      </trkpt>
      <trkpt lat="48.60529" lon="1.98369">
        <ele>97.71</ele>
        <time>2017-08-09T08:08:50Z</time>
      </trkpt>
      <trkpt lat="48.60536" lon="1.98363">
        <ele>98.19</ele>
        <time>2017-08-09T08:09:00Z</time>
      </trkpt>
      <trkpt lat="48.60532" lon="1.98343">
        <ele>98.19</ele>
        <time>2017-08-09T08:09:10Z</time>
      </trkpt>
      <trkpt lat="48.60532" lon="1.98341">
        <ele>98.19</ele>
        <time>2017-08-09T08:09:20Z</time>
      </trkpt>
      <trkpt lat="48.60534" lon="1.98334">
        <ele>98.67</ele>
        <time>2017-08-09T08:09:32Z</time>
      </trkpt>
      <trkpt lat="48.60523" lon="1.98328">
        <ele>98.67</ele>
        <time>2017-08-09T08:09:41Z</time>
      </trkpt>
      <trkpt lat="48.60508" lon="1.9831">
        <ele>98.67</ele>
        <time>2017-08-09T08:09:52Z</time>
      </trkpt>
      <trkpt lat="48.60494" lon="1.98296">
        <ele>98.67</ele>
        <time>2017-08-09T08:10:05Z</time>
      </trkpt>
      <trkpt lat="48.60487" lon="1.98288">
        <ele>98.67</ele>
        <time>2017-08-09T08:10:14Z</time>
      </trkpt>
      <trkpt lat="48.60483" lon="1.98279">
        <ele>98.67</ele>
        <time>2017-08-09T08:10:19Z</time>
      </trkpt>
      <trkpt lat="48.60468" lon="1.98264">
        <ele>98.67</ele>
        <time>2017-08-09T08:10:33Z</time>
      </trkpt>
      <trkpt lat="48.60457" lon="1.98258">
        <ele>98.67</ele>
        <time>2017-08-09T08:10:40Z</time>
      </trkpt>
      <trkpt lat="48.60447" lon="1.98247">
        <ele>98.19</ele>
        <time>2017-08-09T08:10:45Z</time>
      </trkpt>
      <trkpt lat="48.60441" lon="1.98241">
        <ele>98.67</ele>
        <time>2017-08-09T08:10:49Z</time>
      </trkpt>
      <trkpt lat="48.60433" lon="1.98234">
        <ele>98.67</ele>
        <time>2017-08-09T08:10:55Z</time>
      </trkpt>
      <trkpt lat="48.60422" lon="1.98219">
        <ele>98.67</ele>
        <time>2017-08-09T08:11:08Z</time>
      </trkpt>
      <trkpt lat="48.60418" lon="1.98218">
        <ele>99.15</ele>
        <time>2017-08-09T08:11:10Z</time>
      </trkpt>
      <trkpt lat="48.60403" lon="1.9821">
        <ele>99.15</ele>
        <time>2017-08-09T08:11:16Z</time>
      </trkpt>
      <trkpt lat="48.60391" lon="1.98194">
        <ele>99.15</ele>
        <time>2017-08-09T08:11:28Z</time>
      </trkpt>
      <trkpt lat="48.60381" lon="1.9818">
        <ele>100.11</ele>
        <time>2017-08-09T08:11:40Z</time>
      </trkpt>
      <trkpt lat="48.60367" lon="1.98171">
        <ele>100.6</ele>
        <time>2017-08-09T08:11:48Z</time>
      </trkpt>
      <trkpt lat="48.6036" lon="1.98165">
        <ele>100.6</ele>
        <time>2017-08-09T08:11:53Z</time>
      </trkpt>
      <trkpt lat="48.60357" lon="1.98161">
        <ele>100.6</ele>
        <time>2017-08-09T08:11:56Z</time>
      </trkpt>
      <trkpt lat="48.60364" lon="1.9814">
        <ele>100.6</ele>
        <time>2017-08-09T08:12:08Z</time>
      </trkpt>
      <trkpt lat="48.60377" lon="1.98129">
        <ele>100.6</ele>
        <time>2017-08-09T08:12:16Z</time>
      </trkpt>
      <trkpt lat="48.60387" lon="1.98118">
        <ele>101.08</ele>
        <time>2017-08-09T08:12:21Z</time>
      </trkpt>
      <trkpt lat="48.60395" lon="1.98107">
        <ele>102.04</ele>
        <time>2017-08-09T08:12:28Z</time>
      </trkpt>
      <trkpt lat="48.60409" lon="1.98075">
        <ele>103</ele>
        <time>2017-08-09T08:12:42Z</time>
      </trkpt>
      <trkpt lat="48.60418" lon="1.98063">
        <ele>103.48</ele>
        <time>2017-08-09T08:12:52Z</time>
      </trkpt>
      <trkpt lat="48.60433" lon="1.9804">
        <ele>103.96</ele>
        <time>2017-08-09T08:13:02Z</time>
      </trkpt>
      <trkpt lat="48.60441" lon="1.98036">
        <ele>104.44</ele>
        <time>2017-08-09T08:13:09Z</time>
      </trkpt>
      <trkpt lat="48.60444" lon="1.98034">
        <ele>104.44</ele>
        <time>2017-08-09T08:13:11Z</time>
      </trkpt>
      <trkpt lat="48.6045" lon="1.9803">
        <ele>104.44</ele>
        <time>2017-08-09T08:13:14Z</time>
      </trkpt>
      <trkpt lat="48.60466" lon="1.97999">
        <ele>104.92</ele>
        <time>2017-08-09T08:13:26Z</time>
      </trkpt>
      <trkpt lat="48.60467" lon="1.97991">
        <ele>105.4</ele>
        <time>2017-08-09T08:13:31Z</time>
      </trkpt>
      <trkpt lat="48.60465" lon="1.97985">
        <ele>105.4</ele>
        <time>2017-08-09T08:13:37Z</time>
      </trkpt>
      <trkpt lat="48.60465" lon="1.97977">
        <ele>105.4</ele>
        <time>2017-08-09T08:13:42Z</time>
      </trkpt>
      <trkpt lat="48.60437" lon="1.97963">
        <ele>105.88</ele>
        <time>2017-08-09T08:13:48Z</time>
      </trkpt>
      <trkpt lat="48.60436" lon="1.9796">
        <ele>105.88</ele>
        <time>2017-08-09T08:13:53Z</time>
      </trkpt>
      <trkpt lat="48.60441" lon="1.9795">
        <ele>105.88</ele>
        <time>2017-08-09T08:13:59Z</time>
      </trkpt>
      <trkpt lat="48.60443" lon="1.97944">
        <ele>105.88</ele>
        <time>2017-08-09T08:14:02Z</time>
      </trkpt>
      <trkpt lat="48.6045" lon="1.97921">
        <ele>105.88</ele>
        <time>2017-08-09T08:14:13Z</time>
      </trkpt>
      <trkpt lat="48.60449" lon="1.97921">
        <ele>105.88</ele>
        <time>2017-08-09T08:14:15Z</time>
      </trkpt>
      <trkpt lat="48.60451" lon="1.97916">
        <ele>105.88</ele>
        <time>2017-08-09T08:14:18Z</time>
      </trkpt>
      <trkpt lat="48.60459" lon="1.97889">
        <ele>105.88</ele>
        <time>2017-08-09T08:14:28Z</time>
      </trkpt>
      <trkpt lat="48.60465" lon="1.97877">
        <ele>106.36</ele>
        <time>2017-08-09T08:14:37Z</time>
      </trkpt>
      <trkpt lat="48.60465" lon="1.97877">
        <ele>106.36</ele>
        <time>2017-08-09T08:14:38Z</time>
      </trkpt>
      <trkpt lat="48.60467" lon="1.97873">
        <ele>106.36</ele>
        <time>2017-08-09T08:14:40Z</time>
      </trkpt>
      <trkpt lat="48.60474" lon="1.97859">
        <ele>106.36</ele>
        <time>2017-08-09T08:14:47Z</time>
      </trkpt>
      <trkpt lat="48.60485" lon="1.97838">
        <ele>106.36</ele>
        <time>2017-08-09T08:14:58Z</time>
      </trkpt>
      <trkpt lat="48.60485" lon="1.97835">
        <ele>106.36</ele>
        <time>2017-08-09T08:15:01Z</time>
      </trkpt>
      <trkpt lat="48.60493" lon="1.97818">
        <ele>106.84</ele>
        <time>2017-08-09T08:15:09Z</time>
      </trkpt>
      <trkpt lat="48.60498" lon="1.97806">
        <ele>106.84</ele>
        <time>2017-08-09T08:15:13Z</time>
      </trkpt>
      <trkpt lat="48.60502" lon="1.97795">
        <ele>106.84</ele>
        <time>2017-08-09T08:15:22Z</time>
      </trkpt>
      <trkpt lat="48.60507" lon="1.97783">
        <ele>106.84</ele>
        <time>2017-08-09T08:15:28Z</time>
      </trkpt>
      <trkpt lat="48.60513" lon="1.97769">
        <ele>106.84</ele>
        <time>2017-08-09T08:15:36Z</time>
      </trkpt>
      <trkpt lat="48.60515" lon="1.97763">
        <ele>106.84</ele>
        <time>2017-08-09T08:15:41Z</time>
      </trkpt>
      <trkpt lat="48.60517" lon="1.97756">
        <ele>107.32</ele>
        <time>2017-08-09T08:15:44Z</time>
      </trkpt>
      <trkpt lat="48.60525" lon="1.97736">
        <ele>106.84</ele>
        <time>2017-08-09T08:15:54Z</time>
      </trkpt>
      <trkpt lat="48.60526" lon="1.97733">
        <ele>106.84</ele>
        <time>2017-08-09T08:15:56Z</time>
      </trkpt>
      <trkpt lat="48.60535" lon="1.97721">
        <ele>106.36</ele>
        <time>2017-08-09T08:16:04Z</time>
      </trkpt>
      <trkpt lat="48.60533" lon="1.97718">
        <ele>106.36</ele>
        <time>2017-08-09T08:16:07Z</time>
      </trkpt>
      <trkpt lat="48.60536" lon="1.97717">
        <ele>105.88</ele>
        <time>2017-08-09T08:16:20Z</time>
      </trkpt>
      <trkpt lat="48.60535" lon="1.97716">
        <ele>105.88</ele>
        <time>2017-08-09T08:16:38Z</time>
      </trkpt>
      <trkpt lat="48.60535" lon="1.97718">
        <ele>105.88</ele>
        <time>2017-08-09T08:16:56Z</time>
      </trkpt>
      <trkpt lat="48.60535" lon="1.9772">
        <ele>105.88</ele>
        <time>2017-08-09T08:17:07Z</time>
      </trkpt>
      <trkpt lat="48.60535" lon="1.97719">
        <ele>105.88</ele>
        <time>2017-08-09T08:17:20Z</time>
      </trkpt>
      <trkpt lat="48.60532" lon="1.97716">
        <ele>106.36</ele>
        <time>2017-08-09T08:17:28Z</time>
      </trkpt>
      <trkpt lat="48.60524" lon="1.97711">
        <ele>106.84</ele>
        <time>2017-08-09T08:17:39Z</time>
      </trkpt>
      <trkpt lat="48.60523" lon="1.97709">
        <ele>106.84</ele>
        <time>2017-08-09T08:17:50Z</time>
      </trkpt>
      <trkpt lat="48.60517" lon="1.97693">
        <ele>107.81</ele>
        <time>2017-08-09T08:18:03Z</time>
      </trkpt>
      <trkpt lat="48.60516" lon="1.97692">
        <ele>107.81</ele>
        <time>2017-08-09T08:18:04Z</time>
      </trkpt>
      <trkpt lat="48.6051" lon="1.97684">
        <ele>108.29</ele>
        <time>2017-08-09T08:18:11Z</time>
      </trkpt>
      <trkpt lat="48.60499" lon="1.97665">
        <ele>108.77</ele>
        <time>2017-08-09T08:18:23Z</time>
      </trkpt>
      <trkpt lat="48.60488" lon="1.97648">
        <ele>109.73</ele>
        <time>2017-08-09T08:18:34Z</time>
      </trkpt>
      <trkpt lat="48.60486" lon="1.97646">
        <ele>109.73</ele>
        <time>2017-08-09T08:18:36Z</time>
      </trkpt>
      <trkpt lat="48.60484" lon="1.97644">
        <ele>109.73</ele>
        <time>2017-08-09T08:18:38Z</time>
      </trkpt>
      <trkpt lat="48.60482" lon="1.97643">
        <ele>109.73</ele>
        <time>2017-08-09T08:18:39Z</time>
      </trkpt>
      <trkpt lat="48.60472" lon="1.9763">
        <ele>110.21</ele>
        <time>2017-08-09T08:18:50Z</time>
      </trkpt>
      <trkpt lat="48.60461" lon="1.97627">
        <ele>110.69</ele>
        <time>2017-08-09T08:18:56Z</time>
      </trkpt>
      <trkpt lat="48.60456" lon="1.97626">
        <ele>110.69</ele>
        <time>2017-08-09T08:18:58Z</time>
      </trkpt>
      <trkpt lat="48.6045" lon="1.9762">
        <ele>110.69</ele>
        <time>2017-08-09T08:19:02Z</time>
      </trkpt>
      <trkpt lat="48.60446" lon="1.97614">
        <ele>110.69</ele>
        <time>2017-08-09T08:19:08Z</time>
      </trkpt>
      <trkpt lat="48.60426" lon="1.97599">
        <ele>111.17</ele>
        <time>2017-08-09T08:19:20Z</time>
      </trkpt>
      <trkpt lat="48.6042" lon="1.97587">
        <ele>111.65</ele>
        <time>2017-08-09T08:19:30Z</time>
      </trkpt>
      <trkpt lat="48.60415" lon="1.97583">
        <ele>111.65</ele>
        <time>2017-08-09T08:19:34Z</time>
      </trkpt>
      <trkpt lat="48.60401" lon="1.97572">
        <ele>112.13</ele>
        <time>2017-08-09T08:19:42Z</time>
      </trkpt>
      <trkpt lat="48.60393" lon="1.97566">
        <ele>112.61</ele>
        <time>2017-08-09T08:19:47Z</time>
      </trkpt>
      <trkpt lat="48.60375" lon="1.97554">
        <ele>113.57</ele>
        <time>2017-08-09T08:20:01Z</time>
      </trkpt>
      <trkpt lat="48.60374" lon="1.97554">
        <ele>113.09</ele>
        <time>2017-08-09T08:20:02Z</time>
      </trkpt>
      <trkpt lat="48.60371" lon="1.97547">
        <ele>113.57</ele>
        <time>2017-08-09T08:20:05Z</time>
      </trkpt>
      <trkpt lat="48.60365" lon="1.97541">
        <ele>113.57</ele>
        <time>2017-08-09T08:20:11Z</time>
      </trkpt>
      <trkpt lat="48.60362" lon="1.97538">
        <ele>114.05</ele>
        <time>2017-08-09T08:20:14Z</time>
      </trkpt>
      <trkpt lat="48.60358" lon="1.97533">
        <ele>114.05</ele>
        <time>2017-08-09T08:20:18Z</time>
      </trkpt>
      <trkpt lat="48.60355" lon="1.9752">
        <ele>115.01</ele>
        <time>2017-08-09T08:20:30Z</time>
      </trkpt>
      <trkpt lat="48.60355" lon="1.9752">
        <ele>115.01</ele>
        <time>2017-08-09T08:20:31Z</time>
      </trkpt>
      <trkpt lat="48.60345" lon="1.97515">
        <ele>115.5</ele>
        <time>2017-08-09T08:20:36Z</time>
      </trkpt>
      <trkpt lat="48.60332" lon="1.97499">
        <ele>115.98</ele>
        <time>2017-08-09T08:20:47Z</time>
      </trkpt>
      <trkpt lat="48.60328" lon="1.97495">
        <ele>115.98</ele>
        <time>2017-08-09T08:20:50Z</time>
      </trkpt>
      <trkpt lat="48.60322" lon="1.97484">
        <ele>116.94</ele>
        <time>2017-08-09T08:20:57Z</time>
      </trkpt>
      <trkpt lat="48.60318" lon="1.97481">
        <ele>116.94</ele>
        <time>2017-08-09T08:20:59Z</time>
      </trkpt>
      <trkpt lat="48.60302" lon="1.97464">
        <ele>119.34</ele>
        <time>2017-08-09T08:21:11Z</time>
      </trkpt>
      <trkpt lat="48.60299" lon="1.97452">
        <ele>121.26</ele>
        <time>2017-08-09T08:21:22Z</time>
      </trkpt>
      <trkpt lat="48.60296" lon="1.97449">
        <ele>122.22</ele>
        <time>2017-08-09T08:21:26Z</time>
      </trkpt>
      <trkpt lat="48.60287" lon="1.97442">
        <ele>123.19</ele>
        <time>2017-08-09T08:21:31Z</time>
      </trkpt>
      <trkpt lat="48.60275" lon="1.97427">
        <ele>126.55</ele>
        <time>2017-08-09T08:21:43Z</time>
      </trkpt>
      <trkpt lat="48.60259" lon="1.97425">
        <ele>129.92</ele>
        <time>2017-08-09T08:21:54Z</time>
      </trkpt>
      <trkpt lat="48.60252" lon="1.97419">
        <ele>131.36</ele>
        <time>2017-08-09T08:22:04Z</time>
      </trkpt>
      <trkpt lat="48.6024" lon="1.97404">
        <ele>133.28</ele>
        <time>2017-08-09T08:22:14Z</time>
      </trkpt>
      <trkpt lat="48.60231" lon="1.97397">
        <ele>133.76</ele>
        <time>2017-08-09T08:22:19Z</time>
      </trkpt>
      <trkpt lat="48.60225" lon="1.97392">
        <ele>134.72</ele>
        <time>2017-08-09T08:22:23Z</time>
      </trkpt>
      <trkpt lat="48.6022" lon="1.97386">
        <ele>135.2</ele>
        <time>2017-08-09T08:22:29Z</time>
      </trkpt>
      <trkpt lat="48.60204" lon="1.97371">
        <ele>136.16</ele>
        <time>2017-08-09T08:22:45Z</time>
      </trkpt>
      <trkpt lat="48.60198" lon="1.97366">
        <ele>138.09</ele>
        <time>2017-08-09T08:22:56Z</time>
      </trkpt>
      <trkpt lat="48.60181" lon="1.97353">
        <ele>138.09</ele>
        <time>2017-08-09T08:23:09Z</time>
      </trkpt>
      <trkpt lat="48.60165" lon="1.9734">
        <ele>138.57</ele>
        <time>2017-08-09T08:23:22Z</time>
      </trkpt>
      <trkpt lat="48.60159" lon="1.97332">
        <ele>139.05</ele>
        <time>2017-08-09T08:23:38Z</time>
      </trkpt>
      <trkpt lat="48.6015" lon="1.97339">
        <ele>138.09</ele>
        <time>2017-08-09T08:23:50Z</time>
      </trkpt>
      <trkpt lat="48.60145" lon="1.97346">
        <ele>137.61</ele>
        <time>2017-08-09T08:23:56Z</time>
      </trkpt>
      <trkpt lat="48.60135" lon="1.97368">
        <ele>136.64</ele>
        <time>2017-08-09T08:24:16Z</time>
      </trkpt>
      <trkpt lat="48.60126" lon="1.97387">
        <ele>134.72</ele>
        <time>2017-08-09T08:24:34Z</time>
      </trkpt>
      <trkpt lat="48.60119" lon="1.97409">
        <ele>131.84</ele>
        <time>2017-08-09T08:24:48Z</time>
      </trkpt>
      <trkpt lat="48.60108" lon="1.9743">
        <ele>128.47</ele>
        <time>2017-08-09T08:25:03Z</time>
      </trkpt>
      <trkpt lat="48.60097" lon="1.97444">
        <ele>125.59</ele>
        <time>2017-08-09T08:25:18Z</time>
      </trkpt>
      <trkpt lat="48.60086" lon="1.97467">
        <ele>122.71</ele>
        <time>2017-08-09T08:25:34Z</time>
      </trkpt>
      <trkpt lat="48.60079" lon="1.9749">
        <ele>120.78</ele>
        <time>2017-08-09T08:25:48Z</time>
      </trkpt>
      <trkpt lat="48.60072" lon="1.97495">
        <ele>119.82</ele>
        <time>2017-08-09T08:25:52Z</time>
      </trkpt>
      <trkpt lat="48.60061" lon="1.97523">
        <ele>118.38</ele>
        <time>2017-08-09T08:26:08Z</time>
      </trkpt>
      <trkpt lat="48.60057" lon="1.97535">
        <ele>117.9</ele>
        <time>2017-08-09T08:26:15Z</time>
      </trkpt>
      <trkpt lat="48.60043" lon="1.97569">
        <ele>116.46</ele>
        <time>2017-08-09T08:26:33Z</time>
      </trkpt>
      <trkpt lat="48.60031" lon="1.97597">
        <ele>115.5</ele>
        <time>2017-08-09T08:26:50Z</time>
      </trkpt>
      <trkpt lat="48.60015" lon="1.97625">
        <ele>114.53</ele>
        <time>2017-08-09T08:27:10Z</time>
      </trkpt>
      <trkpt lat="48.59993" lon="1.97658">
        <ele>112.61</ele>
        <time>2017-08-09T08:27:29Z</time>
      </trkpt>
      <trkpt lat="48.59977" lon="1.977">
        <ele>110.69</ele>
        <time>2017-08-09T08:27:50Z</time>
      </trkpt>
      <trkpt lat="48.59973" lon="1.97714">
        <ele>110.21</ele>
        <time>2017-08-09T08:28:02Z</time>
      </trkpt>
      <trkpt lat="48.5997" lon="1.97708">
        <ele>110.69</ele>
        <time>2017-08-09T08:28:15Z</time>
      </trkpt>
      <trkpt lat="48.59951" lon="1.97676">
        <ele>111.17</ele>
        <time>2017-08-09T08:28:36Z</time>
      </trkpt>
      <trkpt lat="48.59936" lon="1.97649">
        <ele>113.09</ele>
        <time>2017-08-09T08:28:54Z</time>
      </trkpt>
      <trkpt lat="48.59919" lon="1.97607">
        <ele>114.53</ele>
        <time>2017-08-09T08:29:17Z</time>
      </trkpt>
      <trkpt lat="48.59902" lon="1.97572">
        <ele>115.5</ele>
        <time>2017-08-09T08:29:38Z</time>
      </trkpt>
      <trkpt lat="48.59888" lon="1.97535">
        <ele>115.98</ele>
        <time>2017-08-09T08:29:59Z</time>
      </trkpt>
      <trkpt lat="48.5987" lon="1.97497">
        <ele>116.46</ele>
        <time>2017-08-09T08:30:21Z</time>
      </trkpt>
      <trkpt lat="48.59864" lon="1.97482">
        <ele>116.94</ele>
        <time>2017-08-09T08:30:26Z</time>
      </trkpt>
      <trkpt lat="48.59843" lon="1.97444">
        <ele>118.38</ele>
        <time>2017-08-09T08:30:48Z</time>
      </trkpt>
      <trkpt lat="48.59826" lon="1.97418">
        <ele>119.82</ele>
        <time>2017-08-09T08:31:07Z</time>
      </trkpt>
      <trkpt lat="48.59813" lon="1.97379">
        <ele>120.78</ele>
        <time>2017-08-09T08:31:27Z</time>
      </trkpt>
      <trkpt lat="48.59799" lon="1.97349">
        <ele>121.74</ele>
        <time>2017-08-09T08:31:45Z</time>
      </trkpt>
      <trkpt lat="48.59782" lon="1.97312">
        <ele>122.71</ele>
        <time>2017-08-09T08:32:06Z</time>
      </trkpt>
      <trkpt lat="48.59764" lon="1.9729">
        <ele>123.67</ele>
        <time>2017-08-09T08:32:22Z</time>
      </trkpt>
      <trkpt lat="48.59749" lon="1.9725">
        <ele>125.11</ele>
        <time>2017-08-09T08:32:45Z</time>
      </trkpt>
      <trkpt lat="48.59742" lon="1.97238">
        <ele>125.11</ele>
        <time>2017-08-09T08:33:02Z</time>
      </trkpt>
      <trkpt lat="48.59763" lon="1.97223">
        <ele>126.07</ele>
        <time>2017-08-09T08:33:19Z</time>
      </trkpt>
      <trkpt lat="48.59789" lon="1.97214">
        <ele>125.11</ele>
        <time>2017-08-09T08:33:39Z</time>
      </trkpt>
      <trkpt lat="48.59807" lon="1.97207">
        <ele>125.59</ele>
        <time>2017-08-09T08:33:49Z</time>
      </trkpt>
      <trkpt lat="48.59837" lon="1.97193">
        <ele>125.59</ele>
        <time>2017-08-09T08:34:09Z</time>
      </trkpt>
      <trkpt lat="48.5985" lon="1.97182">
        <ele>126.07</ele>
        <time>2017-08-09T08:34:23Z</time>
      </trkpt>
      <trkpt lat="48.59855" lon="1.97181">
        <ele>126.07</ele>
        <time>2017-08-09T08:34:26Z</time>
      </trkpt>
      <trkpt lat="48.59893" lon="1.97168">
        <ele>127.03</ele>
        <time>2017-08-09T08:34:50Z</time>
      </trkpt>
      <trkpt lat="48.59896" lon="1.97165">
        <ele>127.51</ele>
        <time>2017-08-09T08:34:55Z</time>
      </trkpt>
      <trkpt lat="48.5992" lon="1.97154">
        <ele>129.43</ele>
        <time>2017-08-09T08:35:14Z</time>
      </trkpt>
      <trkpt lat="48.59949" lon="1.97145">
        <ele>130.88</ele>
        <time>2017-08-09T08:35:32Z</time>
      </trkpt>
      <trkpt lat="48.59966" lon="1.97133">
        <ele>132.32</ele>
        <time>2017-08-09T08:35:50Z</time>
      </trkpt>
      <trkpt lat="48.59968" lon="1.97133">
        <ele>131.84</ele>
        <time>2017-08-09T08:36:15Z</time>
      </trkpt>
      <trkpt lat="48.59962" lon="1.97134">
        <ele>132.32</ele>
        <time>2017-08-09T08:36:35Z</time>
      </trkpt>
      <trkpt lat="48.59965" lon="1.97134">
        <ele>132.32</ele>
        <time>2017-08-09T08:36:57Z</time>
      </trkpt>
      <trkpt lat="48.59972" lon="1.97146">
        <ele>132.32</ele>
        <time>2017-08-09T08:37:19Z</time>
      </trkpt>
      <trkpt lat="48.59971" lon="1.97144">
        <ele>131.84</ele>
        <time>2017-08-09T08:37:37Z</time>
      </trkpt>
      <trkpt lat="48.59974" lon="1.97142">
        <ele>132.32</ele>
        <time>2017-08-09T08:37:50Z</time>
      </trkpt>
      <trkpt lat="48.59976" lon="1.97143">
        <ele>132.8</ele>
        <time>2017-08-09T08:38:04Z</time>
      </trkpt>
      <trkpt lat="48.59978" lon="1.97141">
        <ele>132.8</ele>
        <time>2017-08-09T08:38:14Z</time>
      </trkpt>
      <trkpt lat="48.5998" lon="1.9714">
        <ele>132.8</ele>
        <time>2017-08-09T08:38:16Z</time>
      </trkpt>
      <trkpt lat="48.59988" lon="1.97141">
        <ele>132.8</ele>
        <time>2017-08-09T08:38:26Z</time>
      </trkpt>
      <trkpt lat="48.59998" lon="1.97141">
        <ele>132.8</ele>
        <time>2017-08-09T08:38:38Z</time>
      </trkpt>
      <trkpt lat="48.60002" lon="1.97144">
        <ele>132.8</ele>
        <time>2017-08-09T08:38:46Z</time>
      </trkpt>
      <trkpt lat="48.60005" lon="1.97143">
        <ele>132.8</ele>
        <time>2017-08-09T08:38:48Z</time>
      </trkpt>
      <trkpt lat="48.60018" lon="1.97143">
        <ele>132.8</ele>
        <time>2017-08-09T08:38:55Z</time>
      </trkpt>
      <trkpt lat="48.60029" lon="1.97137">
        <ele>132.32</ele>
        <time>2017-08-09T08:39:03Z</time>
      </trkpt>
      <trkpt lat="48.60037" lon="1.9713">
        <ele>132.32</ele>
        <time>2017-08-09T08:39:07Z</time>
      </trkpt>
      <trkpt lat="48.60052" lon="1.97106">
        <ele>132.32</ele>
        <time>2017-08-09T08:39:20Z</time>
      </trkpt>
      <trkpt lat="48.60062" lon="1.97098">
        <ele>132.32</ele>
        <time>2017-08-09T08:39:29Z</time>
      </trkpt>
      <trkpt lat="48.60066" lon="1.97096">
        <ele>132.32</ele>
        <time>2017-08-09T08:39:32Z</time>
      </trkpt>
      <trkpt lat="48.60087" lon="1.97085">
        <ele>131.84</ele>
        <time>2017-08-09T08:39:47Z</time>
      </trkpt>
      <trkpt lat="48.60101" lon="1.9708">
        <ele>130.4</ele>
        <time>2017-08-09T08:39:59Z</time>
      </trkpt>
      <trkpt lat="48.60112" lon="1.97081">
        <ele>129.43</ele>
        <time>2017-08-09T08:40:08Z</time>
      </trkpt>
      <trkpt lat="48.60116" lon="1.97081">
        <ele>129.92</ele>
        <time>2017-08-09T08:40:11Z</time>
      </trkpt>
      <trkpt lat="48.60119" lon="1.97083">
        <ele>128.95</ele>
        <time>2017-08-09T08:40:13Z</time>
      </trkpt>
      <trkpt lat="48.60139" lon="1.97085">
        <ele>127.03</ele>
        <time>2017-08-09T08:40:26Z</time>
      </trkpt>
      <trkpt lat="48.60146" lon="1.97085">
        <ele>126.07</ele>
        <time>2017-08-09T08:40:33Z</time>
      </trkpt>
      <trkpt lat="48.60149" lon="1.97085">
        <ele>126.07</ele>
        <time>2017-08-09T08:40:35Z</time>
      </trkpt>
      <trkpt lat="48.60164" lon="1.97086">
        <ele>125.11</ele>
        <time>2017-08-09T08:40:48Z</time>
      </trkpt>
      <trkpt lat="48.60172" lon="1.97085">
        <ele>123.67</ele>
        <time>2017-08-09T08:40:59Z</time>
      </trkpt>
      <trkpt lat="48.60175" lon="1.97084">
        <ele>123.19</ele>
        <time>2017-08-09T08:41:02Z</time>
      </trkpt>
      <trkpt lat="48.60188" lon="1.97085">
        <ele>122.71</ele>
        <time>2017-08-09T08:41:07Z</time>
      </trkpt>
      <trkpt lat="48.60203" lon="1.97086">
        <ele>121.74</ele>
        <time>2017-08-09T08:41:15Z</time>
      </trkpt>
      <trkpt lat="48.60217" lon="1.97092">
        <ele>120.78</ele>
        <time>2017-08-09T08:41:28Z</time>
      </trkpt>
      <trkpt lat="48.60234" lon="1.971">
        <ele>120.3</ele>
        <time>2017-08-09T08:41:37Z</time>
      </trkpt>
      <trkpt lat="48.60242" lon="1.97103">
        <ele>119.82</ele>
        <time>2017-08-09T08:41:42Z</time>
      </trkpt>
      <trkpt lat="48.60256" lon="1.97109">
        <ele>118.86</ele>
        <time>2017-08-09T08:41:51Z</time>
      </trkpt>
      <trkpt lat="48.60256" lon="1.97107">
        <ele>118.86</ele>
        <time>2017-08-09T08:41:54Z</time>
      </trkpt>
      <trkpt lat="48.6026" lon="1.97101">
        <ele>118.38</ele>
        <time>2017-08-09T08:41:57Z</time>
      </trkpt>
      <trkpt lat="48.60266" lon="1.97083">
        <ele>117.9</ele>
        <time>2017-08-09T08:42:03Z</time>
      </trkpt>
      <trkpt lat="48.60271" lon="1.97076">
        <ele>117.42</ele>
        <time>2017-08-09T08:42:12Z</time>
      </trkpt>
      <trkpt lat="48.60273" lon="1.97072">
        <ele>117.42</ele>
        <time>2017-08-09T08:42:14Z</time>
      </trkpt>
      <trkpt lat="48.60274" lon="1.97066">
        <ele>116.94</ele>
        <time>2017-08-09T08:42:17Z</time>
      </trkpt>
      <trkpt lat="48.60278" lon="1.97055">
        <ele>115.98</ele>
        <time>2017-08-09T08:42:25Z</time>
      </trkpt>
      <trkpt lat="48.60284" lon="1.97042">
        <ele>115.98</ele>
        <time>2017-08-09T08:42:31Z</time>
      </trkpt>
      <trkpt lat="48.60294" lon="1.97026">
        <ele>115.98</ele>
        <time>2017-08-09T08:42:40Z</time>
      </trkpt>
      <trkpt lat="48.60299" lon="1.97007">
        <ele>116.46</ele>
        <time>2017-08-09T08:42:50Z</time>
      </trkpt>
      <trkpt lat="48.60299" lon="1.97001">
        <ele>116.46</ele>
        <time>2017-08-09T08:42:52Z</time>
      </trkpt>
      <trkpt lat="48.60295" lon="1.96981">
        <ele>116.94</ele>
        <time>2017-08-09T08:43:01Z</time>
      </trkpt>
      <trkpt lat="48.60288" lon="1.96955">
        <ele>117.42</ele>
        <time>2017-08-09T08:43:13Z</time>
      </trkpt>
      <trkpt lat="48.60287" lon="1.96941">
        <ele>117.9</ele>
        <time>2017-08-09T08:43:21Z</time>
      </trkpt>
      <trkpt lat="48.60273" lon="1.96923">
        <ele>118.38</ele>
        <time>2017-08-09T08:43:35Z</time>
      </trkpt>
      <trkpt lat="48.6027" lon="1.96919">
        <ele>118.38</ele>
        <time>2017-08-09T08:43:38Z</time>
      </trkpt>
      <trkpt lat="48.60268" lon="1.96917">
        <ele>118.86</ele>
        <time>2017-08-09T08:43:40Z</time>
      </trkpt>
      <trkpt lat="48.60262" lon="1.96899">
        <ele>118.86</ele>
        <time>2017-08-09T08:43:51Z</time>
      </trkpt>
      <trkpt lat="48.60259" lon="1.96887">
        <ele>119.34</ele>
        <time>2017-08-09T08:43:57Z</time>
      </trkpt>
      <trkpt lat="48.60257" lon="1.96882">
        <ele>119.82</ele>
        <time>2017-08-09T08:44:00Z</time>
      </trkpt>
      <trkpt lat="48.60253" lon="1.96869">
        <ele>120.3</ele>
        <time>2017-08-09T08:44:07Z</time>
      </trkpt>
      <trkpt lat="48.60251" lon="1.96865">
        <ele>120.3</ele>
        <time>2017-08-09T08:44:10Z</time>
      </trkpt>
      <trkpt lat="48.6025" lon="1.96852">
        <ele>120.78</ele>
        <time>2017-08-09T08:44:17Z</time>
      </trkpt>
      <trkpt lat="48.60248" lon="1.96842">
        <ele>120.78</ele>
        <time>2017-08-09T08:44:21Z</time>
      </trkpt>
      <trkpt lat="48.60243" lon="1.96833">
        <ele>121.74</ele>
        <time>2017-08-09T08:44:29Z</time>
      </trkpt>
      <trkpt lat="48.60239" lon="1.9682">
        <ele>122.22</ele>
        <time>2017-08-09T08:44:35Z</time>
      </trkpt>
      <trkpt lat="48.60234" lon="1.96805">
        <ele>122.71</ele>
        <time>2017-08-09T08:44:44Z</time>
      </trkpt>
      <trkpt lat="48.60232" lon="1.96801">
        <ele>122.71</ele>
        <time>2017-08-09T08:44:46Z</time>
      </trkpt>
      <trkpt lat="48.60227" lon="1.96792">
        <ele>123.19</ele>
        <time>2017-08-09T08:44:52Z</time>
      </trkpt>
      <trkpt lat="48.60223" lon="1.96783">
        <ele>123.67</ele>
        <time>2017-08-09T08:44:56Z</time>
      </trkpt>
      <trkpt lat="48.60223" lon="1.96768">
        <ele>123.67</ele>
        <time>2017-08-09T08:45:04Z</time>
      </trkpt>
      <trkpt lat="48.60221" lon="1.96751">
        <ele>123.67</ele>
        <time>2017-08-09T08:45:10Z</time>
      </trkpt>
      <trkpt lat="48.60217" lon="1.96738">
        <ele>124.15</ele>
        <time>2017-08-09T08:45:17Z</time>
      </trkpt>
      <trkpt lat="48.60213" lon="1.96723">
        <ele>124.15</ele>
        <time>2017-08-09T08:45:23Z</time>
      </trkpt>
      <trkpt lat="48.60211" lon="1.96709">
        <ele>124.63</ele>
        <time>2017-08-09T08:45:32Z</time>
      </trkpt>
      <trkpt lat="48.60207" lon="1.96696">
        <ele>124.63</ele>
        <time>2017-08-09T08:45:38Z</time>
      </trkpt>
      <trkpt lat="48.60207" lon="1.96687">
        <ele>125.11</ele>
        <time>2017-08-09T08:45:45Z</time>
      </trkpt>
      <trkpt lat="48.60207" lon="1.96682">
        <ele>125.11</ele>
        <time>2017-08-09T08:45:48Z</time>
      </trkpt>
      <trkpt lat="48.60208" lon="1.96672">
        <ele>125.11</ele>
        <time>2017-08-09T08:45:52Z</time>
      </trkpt>
      <trkpt lat="48.60211" lon="1.96653">
        <ele>126.07</ele>
        <time>2017-08-09T08:46:02Z</time>
      </trkpt>
      <trkpt lat="48.6021" lon="1.96649">
        <ele>126.07</ele>
        <time>2017-08-09T08:46:04Z</time>
      </trkpt>
      <trkpt lat="48.60219" lon="1.96634">
        <ele>126.55</ele>
        <time>2017-08-09T08:46:13Z</time>
      </trkpt>
      <trkpt lat="48.60218" lon="1.96632">
        <ele>126.55</ele>
        <time>2017-08-09T08:46:15Z</time>
      </trkpt>
      <trkpt lat="48.60218" lon="1.96629">
        <ele>126.55</ele>
        <time>2017-08-09T08:46:17Z</time>
      </trkpt>
      <trkpt lat="48.60218" lon="1.9662">
        <ele>126.55</ele>
        <time>2017-08-09T08:46:20Z</time>
      </trkpt>
      <trkpt lat="48.60214" lon="1.96595">
        <ele>127.99</ele>
        <time>2017-08-09T08:46:31Z</time>
      </trkpt>
      <trkpt lat="48.60213" lon="1.96591">
        <ele>127.99</ele>
        <time>2017-08-09T08:46:33Z</time>
      </trkpt>
      <trkpt lat="48.6021" lon="1.96587">
        <ele>127.99</ele>
        <time>2017-08-09T08:46:36Z</time>
      </trkpt>
      <trkpt lat="48.60213" lon="1.96572">
        <ele>128.47</ele>
        <time>2017-08-09T08:46:43Z</time>
      </trkpt>
      <trkpt lat="48.60217" lon="1.96564">
        <ele>128.47</ele>
        <time>2017-08-09T08:46:47Z</time>
      </trkpt>
      <trkpt lat="48.60217" lon="1.9655">
        <ele>128.95</ele>
        <time>2017-08-09T08:46:54Z</time>
      </trkpt>
      <trkpt lat="48.60215" lon="1.96525">
        <ele>129.92</ele>
        <time>2017-08-09T08:47:06Z</time>
      </trkpt>
      <trkpt lat="48.60214" lon="1.96523">
        <ele>129.92</ele>
        <time>2017-08-09T08:47:07Z</time>
      </trkpt>
      <trkpt lat="48.60215" lon="1.9651">
        <ele>130.4</ele>
        <time>2017-08-09T08:47:12Z</time>
      </trkpt>
      <trkpt lat="48.60214" lon="1.96505">
        <ele>130.88</ele>
        <time>2017-08-09T08:47:16Z</time>
      </trkpt>
      <trkpt lat="48.60215" lon="1.96504">
        <ele>130.88</ele>
        <time>2017-08-09T08:47:18Z</time>
      </trkpt>
      <trkpt lat="48.60213" lon="1.96502">
        <ele>130.88</ele>
        <time>2017-08-09T08:47:20Z</time>
      </trkpt>
      <trkpt lat="48.60205" lon="1.96479">
        <ele>131.84</ele>
        <time>2017-08-09T08:47:31Z</time>
      </trkpt>
      <trkpt lat="48.60203" lon="1.96473">
        <ele>131.84</ele>
        <time>2017-08-09T08:47:34Z</time>
      </trkpt>
      <trkpt lat="48.60208" lon="1.96445">
        <ele>132.8</ele>
        <time>2017-08-09T08:47:44Z</time>
      </trkpt>
      <trkpt lat="48.60205" lon="1.96433">
        <ele>133.28</ele>
        <time>2017-08-09T08:47:49Z</time>
      </trkpt>
      <trkpt lat="48.60203" lon="1.96424">
        <ele>133.28</ele>
        <time>2017-08-09T08:47:54Z</time>
      </trkpt>
      <trkpt lat="48.60199" lon="1.96411">
        <ele>133.76</ele>
        <time>2017-08-09T08:47:59Z</time>
      </trkpt>
      <trkpt lat="48.60195" lon="1.96399">
        <ele>134.24</ele>
        <time>2017-08-09T08:48:06Z</time>
      </trkpt>
      <trkpt lat="48.60194" lon="1.96379">
        <ele>134.24</ele>
        <time>2017-08-09T08:48:14Z</time>
      </trkpt>
      <trkpt lat="48.60191" lon="1.96371">
        <ele>134.72</ele>
        <time>2017-08-09T08:48:18Z</time>
      </trkpt>
      <trkpt lat="48.60185" lon="1.96355">
        <ele>134.24</ele>
        <time>2017-08-09T08:48:27Z</time>
      </trkpt>
      <trkpt lat="48.6018" lon="1.96339">
        <ele>133.28</ele>
        <time>2017-08-09T08:48:35Z</time>
      </trkpt>
      <trkpt lat="48.60179" lon="1.96328">
        <ele>132.8</ele>
        <time>2017-08-09T08:48:42Z</time>
      </trkpt>
      <trkpt lat="48.60178" lon="1.96325">
        <ele>132.32</ele>
        <time>2017-08-09T08:48:44Z</time>
      </trkpt>
      <trkpt lat="48.60175" lon="1.96316">
        <ele>131.84</ele>
        <time>2017-08-09T08:48:49Z</time>
      </trkpt>
      <trkpt lat="48.60172" lon="1.96297">
        <ele>130.88</ele>
        <time>2017-08-09T08:48:59Z</time>
      </trkpt>
      <trkpt lat="48.6017" lon="1.96292">
        <ele>130.4</ele>
        <time>2017-08-09T08:49:02Z</time>
      </trkpt>
      <trkpt lat="48.60168" lon="1.96277">
        <ele>129.43</ele>
        <time>2017-08-09T08:49:10Z</time>
      </trkpt>
      <trkpt lat="48.60166" lon="1.96271">
        <ele>129.43</ele>
        <time>2017-08-09T08:49:13Z</time>
      </trkpt>
      <trkpt lat="48.60159" lon="1.96262">
        <ele>128.95</ele>
        <time>2017-08-09T08:49:17Z</time>
      </trkpt>
      <trkpt lat="48.60157" lon="1.9626">
        <ele>128.47</ele>
        <time>2017-08-09T08:49:21Z</time>
      </trkpt>
      <trkpt lat="48.60156" lon="1.96256">
        <ele>127.99</ele>
        <time>2017-08-09T08:49:24Z</time>
      </trkpt>
      <trkpt lat="48.60144" lon="1.96236">
        <ele>127.03</ele>
        <time>2017-08-09T08:49:36Z</time>
      </trkpt>
      <trkpt lat="48.60139" lon="1.96226">
        <ele>126.55</ele>
        <time>2017-08-09T08:49:43Z</time>
      </trkpt>
      <trkpt lat="48.60138" lon="1.96224">
        <ele>126.07</ele>
        <time>2017-08-09T08:49:46Z</time>
      </trkpt>
      <trkpt lat="48.60141" lon="1.96218">
        <ele>125.11</ele>
        <time>2017-08-09T08:49:51Z</time>
      </trkpt>
      <trkpt lat="48.60154" lon="1.96196">
        <ele>124.15</ele>
        <time>2017-08-09T08:50:02Z</time>
      </trkpt>
      <trkpt lat="48.60155" lon="1.96183">
        <ele>123.19</ele>
        <time>2017-08-09T08:50:11Z</time>
      </trkpt>
      <trkpt lat="48.60154" lon="1.96173">
        <ele>122.71</ele>
        <time>2017-08-09T08:50:15Z</time>
      </trkpt>
      <trkpt lat="48.6016" lon="1.96157">
        <ele>122.22</ele>
        <time>2017-08-09T08:50:24Z</time>
      </trkpt>
      <trkpt lat="48.60161" lon="1.9615">
        <ele>122.22</ele>
        <time>2017-08-09T08:50:28Z</time>
      </trkpt>
      <trkpt lat="48.60161" lon="1.96146">
        <ele>121.74</ele>
        <time>2017-08-09T08:50:30Z</time>
      </trkpt>
      <trkpt lat="48.6016" lon="1.96128">
        <ele>121.26</ele>
        <time>2017-08-09T08:50:40Z</time>
      </trkpt>
      <trkpt lat="48.60161" lon="1.96115">
        <ele>121.26</ele>
        <time>2017-08-09T08:50:46Z</time>
      </trkpt>
      <trkpt lat="48.6016" lon="1.96109">
        <ele>120.78</ele>
        <time>2017-08-09T08:50:49Z</time>
      </trkpt>
      <trkpt lat="48.60155" lon="1.96088">
        <ele>120.3</ele>
        <time>2017-08-09T08:51:01Z</time>
      </trkpt>
      <trkpt lat="48.60154" lon="1.9608">
        <ele>119.82</ele>
        <time>2017-08-09T08:51:09Z</time>
      </trkpt>
      <trkpt lat="48.60155" lon="1.96068">
        <ele>119.34</ele>
        <time>2017-08-09T08:51:19Z</time>
      </trkpt>
      <trkpt lat="48.60154" lon="1.96067">
        <ele>119.34</ele>
        <time>2017-08-09T08:51:21Z</time>
      </trkpt>
      <trkpt lat="48.60151" lon="1.96058">
        <ele>119.34</ele>
        <time>2017-08-09T08:51:27Z</time>
      </trkpt>
      <trkpt lat="48.60153" lon="1.9605">
        <ele>118.86</ele>
        <time>2017-08-09T08:51:32Z</time>
      </trkpt>
      <trkpt lat="48.60156" lon="1.96043">
        <ele>119.34</ele>
        <time>2017-08-09T08:51:38Z</time>
      </trkpt>
      <trkpt lat="48.6016" lon="1.96027">
        <ele>120.78</ele>
        <time>2017-08-09T08:51:48Z</time>
      </trkpt>
      <trkpt lat="48.60165" lon="1.96016">
        <ele>121.26</ele>
        <time>2017-08-09T08:51:56Z</time>
      </trkpt>
      <trkpt lat="48.60166" lon="1.96016">
        <ele>121.26</ele>
        <time>2017-08-09T08:51:57Z</time>
      </trkpt>
      <trkpt lat="48.60168" lon="1.96013">
        <ele>121.26</ele>
        <time>2017-08-09T08:51:59Z</time>
      </trkpt>
      <trkpt lat="48.60173" lon="1.95999">
        <ele>121.74</ele>
        <time>2017-08-09T08:52:05Z</time>
      </trkpt>
      <trkpt lat="48.60177" lon="1.95996">
        <ele>122.22</ele>
        <time>2017-08-09T08:52:08Z</time>
      </trkpt>
      <trkpt lat="48.60181" lon="1.95991">
        <ele>121.74</ele>
        <time>2017-08-09T08:52:11Z</time>
      </trkpt>
      <trkpt lat="48.60189" lon="1.95972">
        <ele>120.78</ele>
        <time>2017-08-09T08:52:22Z</time>
      </trkpt>
      <trkpt lat="48.6019" lon="1.95963">
        <ele>120.3</ele>
        <time>2017-08-09T08:52:26Z</time>
      </trkpt>
      <trkpt lat="48.60194" lon="1.95958">
        <ele>119.82</ele>
        <time>2017-08-09T08:52:29Z</time>
      </trkpt>
      <trkpt lat="48.60202" lon="1.95945">
        <ele>118.38</ele>
        <time>2017-08-09T08:52:39Z</time>
      </trkpt>
      <trkpt lat="48.60206" lon="1.95942">
        <ele>117.9</ele>
        <time>2017-08-09T08:52:41Z</time>
      </trkpt>
      <trkpt lat="48.60208" lon="1.95933">
        <ele>117.9</ele>
        <time>2017-08-09T08:52:45Z</time>
      </trkpt>
      <trkpt lat="48.60212" lon="1.95924">
        <ele>116.46</ele>
        <time>2017-08-09T08:52:53Z</time>
      </trkpt>
      <trkpt lat="48.60215" lon="1.95919">
        <ele>115.98</ele>
        <time>2017-08-09T08:52:56Z</time>
      </trkpt>
      <trkpt lat="48.60224" lon="1.95903">
        <ele>114.53</ele>
        <time>2017-08-09T08:53:06Z</time>
      </trkpt>
      <trkpt lat="48.60226" lon="1.95899">
        <ele>114.05</ele>
        <time>2017-08-09T08:53:10Z</time>
      </trkpt>
      <trkpt lat="48.60229" lon="1.95895">
        <ele>113.09</ele>
        <time>2017-08-09T08:53:14Z</time>
      </trkpt>
      <trkpt lat="48.60228" lon="1.9589">
        <ele>113.09</ele>
        <time>2017-08-09T08:53:17Z</time>
      </trkpt>
      <trkpt lat="48.60232" lon="1.95879">
        <ele>112.13</ele>
        <time>2017-08-09T08:53:26Z</time>
      </trkpt>
      <trkpt lat="48.60235" lon="1.95868">
        <ele>111.65</ele>
        <time>2017-08-09T08:53:31Z</time>
      </trkpt>
      <trkpt lat="48.60244" lon="1.95856">
        <ele>111.17</ele>
        <time>2017-08-09T08:53:41Z</time>
      </trkpt>
      <trkpt lat="48.60247" lon="1.95849">
        <ele>111.17</ele>
        <time>2017-08-09T08:53:45Z</time>
      </trkpt>
      <trkpt lat="48.60256" lon="1.95837">
        <ele>110.69</ele>
        <time>2017-08-09T08:53:52Z</time>
      </trkpt>
      <trkpt lat="48.60258" lon="1.95834">
        <ele>110.69</ele>
        <time>2017-08-09T08:53:54Z</time>
      </trkpt>
      <trkpt lat="48.6027" lon="1.95815">
        <ele>110.21</ele>
        <time>2017-08-09T08:54:08Z</time>
      </trkpt>
      <trkpt lat="48.60272" lon="1.95808">
        <ele>111.17</ele>
        <time>2017-08-09T08:54:12Z</time>
      </trkpt>
      <trkpt lat="48.6028" lon="1.95799">
        <ele>109.73</ele>
        <time>2017-08-09T08:54:19Z</time>
      </trkpt>
      <trkpt lat="48.6029" lon="1.95778">
        <ele>109.25</ele>
        <time>2017-08-09T08:54:32Z</time>
      </trkpt>
      <trkpt lat="48.6029" lon="1.95772">
        <ele>109.73</ele>
        <time>2017-08-09T08:54:35Z</time>
      </trkpt>
      <trkpt lat="48.60297" lon="1.95759">
        <ele>109.73</ele>
        <time>2017-08-09T08:54:45Z</time>
      </trkpt>
      <trkpt lat="48.60298" lon="1.95756">
        <ele>109.73</ele>
        <time>2017-08-09T08:54:47Z</time>
      </trkpt>
      <trkpt lat="48.60309" lon="1.95741">
        <ele>109.73</ele>
        <time>2017-08-09T08:54:55Z</time>
      </trkpt>
      <trkpt lat="48.60313" lon="1.95736">
        <ele>109.25</ele>
        <time>2017-08-09T08:54:59Z</time>
      </trkpt>
      <trkpt lat="48.60314" lon="1.95731">
        <ele>109.73</ele>
        <time>2017-08-09T08:55:01Z</time>
      </trkpt>
      <trkpt lat="48.60315" lon="1.95727">
        <ele>109.73</ele>
        <time>2017-08-09T08:55:03Z</time>
      </trkpt>
      <trkpt lat="48.60322" lon="1.95711">
        <ele>109.25</ele>
        <time>2017-08-09T08:55:14Z</time>
      </trkpt>
      <trkpt lat="48.60327" lon="1.95702">
        <ele>109.25</ele>
        <time>2017-08-09T08:55:18Z</time>
      </trkpt>
      <trkpt lat="48.60333" lon="1.95691">
        <ele>109.25</ele>
        <time>2017-08-09T08:55:23Z</time>
      </trkpt>
      <trkpt lat="48.60343" lon="1.95676">
        <ele>109.25</ele>
        <time>2017-08-09T08:55:33Z</time>
      </trkpt>
      <trkpt lat="48.60344" lon="1.95668">
        <ele>109.25</ele>
        <time>2017-08-09T08:55:37Z</time>
      </trkpt>
      <trkpt lat="48.60348" lon="1.95658">
        <ele>109.25</ele>
        <time>2017-08-09T08:55:45Z</time>
      </trkpt>
      <trkpt lat="48.60353" lon="1.95652">
        <ele>109.73</ele>
        <time>2017-08-09T08:55:49Z</time>
      </trkpt>
      <trkpt lat="48.60357" lon="1.95638">
        <ele>110.21</ele>
        <time>2017-08-09T08:55:56Z</time>
      </trkpt>
      <trkpt lat="48.60361" lon="1.95628">
        <ele>110.69</ele>
        <time>2017-08-09T08:56:00Z</time>
      </trkpt>
      <trkpt lat="48.60366" lon="1.95624">
        <ele>110.69</ele>
        <time>2017-08-09T08:56:04Z</time>
      </trkpt>
      <trkpt lat="48.6037" lon="1.956">
        <ele>109.73</ele>
        <time>2017-08-09T08:56:16Z</time>
      </trkpt>
      <trkpt lat="48.60363" lon="1.95582">
        <ele>110.21</ele>
        <time>2017-08-09T08:56:26Z</time>
      </trkpt>
      <trkpt lat="48.60344" lon="1.9556">
        <ele>110.21</ele>
        <time>2017-08-09T08:56:41Z</time>
      </trkpt>
      <trkpt lat="48.60342" lon="1.95556">
        <ele>110.21</ele>
        <time>2017-08-09T08:56:44Z</time>
      </trkpt>
      <trkpt lat="48.60321" lon="1.9554">
        <ele>110.21</ele>
        <time>2017-08-09T08:57:00Z</time>
      </trkpt>
      <trkpt lat="48.6032" lon="1.95539">
        <ele>110.21</ele>
        <time>2017-08-09T08:57:01Z</time>
      </trkpt>
      <trkpt lat="48.60307" lon="1.95524">
        <ele>110.21</ele>
        <time>2017-08-09T08:57:15Z</time>
      </trkpt>
      <trkpt lat="48.60306" lon="1.95523">
        <ele>110.21</ele>
        <time>2017-08-09T08:57:17Z</time>
      </trkpt>
      <trkpt lat="48.60298" lon="1.95513">
        <ele>109.73</ele>
        <time>2017-08-09T08:57:21Z</time>
      </trkpt>
      <trkpt lat="48.60291" lon="1.95505">
        <ele>110.21</ele>
        <time>2017-08-09T08:57:27Z</time>
      </trkpt>
      <trkpt lat="48.60276" lon="1.95497">
        <ele>109.73</ele>
        <time>2017-08-09T08:57:38Z</time>
      </trkpt>
      <trkpt lat="48.60274" lon="1.95496">
        <ele>110.21</ele>
        <time>2017-08-09T08:57:39Z</time>
      </trkpt>
      <trkpt lat="48.60265" lon="1.95486">
        <ele>110.21</ele>
        <time>2017-08-09T08:57:46Z</time>
      </trkpt>
      <trkpt lat="48.60259" lon="1.95477">
        <ele>110.21</ele>
        <time>2017-08-09T08:57:54Z</time>
      </trkpt>
      <trkpt lat="48.60253" lon="1.95469">
        <ele>110.21</ele>
        <time>2017-08-09T08:57:58Z</time>
      </trkpt>
      <trkpt lat="48.60252" lon="1.95465">
        <ele>110.69</ele>
        <time>2017-08-09T08:58:00Z</time>
      </trkpt>
      <trkpt lat="48.60246" lon="1.95457">
        <ele>111.17</ele>
        <time>2017-08-09T08:58:10Z</time>
      </trkpt>
      <trkpt lat="48.60246" lon="1.95456">
        <ele>111.17</ele>
        <time>2017-08-09T08:58:11Z</time>
      </trkpt>
      <trkpt lat="48.6024" lon="1.95449">
        <ele>111.65</ele>
        <time>2017-08-09T08:58:15Z</time>
      </trkpt>
      <trkpt lat="48.60232" lon="1.95442">
        <ele>112.13</ele>
        <time>2017-08-09T08:58:23Z</time>
      </trkpt>
      <trkpt lat="48.60211" lon="1.9542">
        <ele>111.17</ele>
        <time>2017-08-09T08:58:38Z</time>
      </trkpt>
      <trkpt lat="48.60203" lon="1.9541">
        <ele>111.17</ele>
        <time>2017-08-09T08:58:50Z</time>
      </trkpt>
      <trkpt lat="48.602" lon="1.95408">
        <ele>111.17</ele>
        <time>2017-08-09T08:58:53Z</time>
      </trkpt>
      <trkpt lat="48.60194" lon="1.95396">
        <ele>111.17</ele>
        <time>2017-08-09T08:58:58Z</time>
      </trkpt>
      <trkpt lat="48.60179" lon="1.95382">
        <ele>111.65</ele>
        <time>2017-08-09T08:59:12Z</time>
      </trkpt>
      <trkpt lat="48.60162" lon="1.95366">
        <ele>112.13</ele>
        <time>2017-08-09T08:59:23Z</time>
      </trkpt>
      <trkpt lat="48.60161" lon="1.95366">
        <ele>112.13</ele>
        <time>2017-08-09T08:59:24Z</time>
      </trkpt>
      <trkpt lat="48.60156" lon="1.95361">
        <ele>112.13</ele>
        <time>2017-08-09T08:59:26Z</time>
      </trkpt>
      <trkpt lat="48.60147" lon="1.95353">
        <ele>112.13</ele>
        <time>2017-08-09T08:59:31Z</time>
      </trkpt>
      <trkpt lat="48.60141" lon="1.95341">
        <ele>112.61</ele>
        <time>2017-08-09T08:59:43Z</time>
      </trkpt>
      <trkpt lat="48.60136" lon="1.95339">
        <ele>112.61</ele>
        <time>2017-08-09T08:59:47Z</time>
      </trkpt>
      <trkpt lat="48.60132" lon="1.95336">
        <ele>112.61</ele>
        <time>2017-08-09T08:59:51Z</time>
      </trkpt>
      <trkpt lat="48.60126" lon="1.95329">
        <ele>113.09</ele>
        <time>2017-08-09T08:59:57Z</time>
      </trkpt>
      <trkpt lat="48.60108" lon="1.95307">
        <ele>113.09</ele>
        <time>2017-08-09T09:00:08Z</time>
      </trkpt>
      <trkpt lat="48.60099" lon="1.9529">
        <ele>113.57</ele>
        <time>2017-08-09T09:00:21Z</time>
      </trkpt>
      <trkpt lat="48.60098" lon="1.95289">
        <ele>113.57</ele>
        <time>2017-08-09T09:00:22Z</time>
      </trkpt>
      <trkpt lat="48.60094" lon="1.95285">
        <ele>113.57</ele>
        <time>2017-08-09T09:00:27Z</time>
      </trkpt>
      <trkpt lat="48.6008" lon="1.95284">
        <ele>113.09</ele>
        <time>2017-08-09T09:00:38Z</time>
      </trkpt>
      <trkpt lat="48.6007" lon="1.95292">
        <ele>113.57</ele>
        <time>2017-08-09T09:00:49Z</time>
      </trkpt>
      <trkpt lat="48.60062" lon="1.95294">
        <ele>114.05</ele>
        <time>2017-08-09T09:00:53Z</time>
      </trkpt>
      <trkpt lat="48.60053" lon="1.953">
        <ele>114.53</ele>
        <time>2017-08-09T09:00:59Z</time>
      </trkpt>
      <trkpt lat="48.60041" lon="1.95304">
        <ele>115.01</ele>
        <time>2017-08-09T09:01:07Z</time>
      </trkpt>
      <trkpt lat="48.60033" lon="1.95318">
        <ele>115.01</ele>
        <time>2017-08-09T09:01:14Z</time>
      </trkpt>
      <trkpt lat="48.60026" lon="1.95334">
        <ele>115.01</ele>
        <time>2017-08-09T09:01:21Z</time>
      </trkpt>
      <trkpt lat="48.60021" lon="1.95343">
        <ele>115.01</ele>
        <time>2017-08-09T09:01:25Z</time>
      </trkpt>
      <trkpt lat="48.60017" lon="1.95351">
        <ele>115.01</ele>
        <time>2017-08-09T09:01:29Z</time>
      </trkpt>
      <trkpt lat="48.60007" lon="1.95372">
        <ele>114.53</ele>
        <time>2017-08-09T09:01:42Z</time>
      </trkpt>
      <trkpt lat="48.59999" lon="1.95394">
        <ele>114.53</ele>
        <time>2017-08-09T09:01:54Z</time>
      </trkpt>
      <trkpt lat="48.59998" lon="1.954">
        <ele>115.01</ele>
        <time>2017-08-09T09:01:58Z</time>
      </trkpt>
      <trkpt lat="48.59983" lon="1.95417">
        <ele>115.5</ele>
        <time>2017-08-09T09:02:08Z</time>
      </trkpt>
      <trkpt lat="48.5998" lon="1.95424">
        <ele>115.5</ele>
        <time>2017-08-09T09:02:11Z</time>
      </trkpt>
      <trkpt lat="48.59972" lon="1.95446">
        <ele>115.98</ele>
        <time>2017-08-09T09:02:21Z</time>
      </trkpt>
      <trkpt lat="48.59971" lon="1.95448">
        <ele>115.98</ele>
        <time>2017-08-09T09:02:22Z</time>
      </trkpt>
      <trkpt lat="48.5997" lon="1.95454">
        <ele>115.98</ele>
        <time>2017-08-09T09:02:25Z</time>
      </trkpt>
      <trkpt lat="48.5996" lon="1.9547">
        <ele>116.94</ele>
        <time>2017-08-09T09:02:36Z</time>
      </trkpt>
      <trkpt lat="48.5996" lon="1.95475">
        <ele>117.42</ele>
        <time>2017-08-09T09:02:38Z</time>
      </trkpt>
      <trkpt lat="48.59956" lon="1.955">
        <ele>118.38</ele>
        <time>2017-08-09T09:02:51Z</time>
      </trkpt>
      <trkpt lat="48.59953" lon="1.95505">
        <ele>118.86</ele>
        <time>2017-08-09T09:02:55Z</time>
      </trkpt>
      <trkpt lat="48.59947" lon="1.95511">
        <ele>119.34</ele>
        <time>2017-08-09T09:02:59Z</time>
      </trkpt>
      <trkpt lat="48.59944" lon="1.95519">
        <ele>120.78</ele>
        <time>2017-08-09T09:03:04Z</time>
      </trkpt>
      <trkpt lat="48.59942" lon="1.95525">
        <ele>120.78</ele>
        <time>2017-08-09T09:03:07Z</time>
      </trkpt>
      <trkpt lat="48.59937" lon="1.9553">
        <ele>121.74</ele>
        <time>2017-08-09T09:03:12Z</time>
      </trkpt>
      <trkpt lat="48.59922" lon="1.95546">
        <ele>121.74</ele>
        <time>2017-08-09T09:03:21Z</time>
      </trkpt>
      <trkpt lat="48.59914" lon="1.95566">
        <ele>122.22</ele>
        <time>2017-08-09T09:03:30Z</time>
      </trkpt>
      <trkpt lat="48.59914" lon="1.95569">
        <ele>122.22</ele>
        <time>2017-08-09T09:03:32Z</time>
      </trkpt>
      <trkpt lat="48.59912" lon="1.95579">
        <ele>122.22</ele>
        <time>2017-08-09T09:03:40Z</time>
      </trkpt>
      <trkpt lat="48.59911" lon="1.95585">
        <ele>122.22</ele>
        <time>2017-08-09T09:03:43Z</time>
      </trkpt>
      <trkpt lat="48.59902" lon="1.95599">
        <ele>122.22</ele>
        <time>2017-08-09T09:03:51Z</time>
      </trkpt>
      <trkpt lat="48.59902" lon="1.956">
        <ele>122.71</ele>
        <time>2017-08-09T09:03:52Z</time>
      </trkpt>
      <trkpt lat="48.59902" lon="1.95604">
        <ele>122.22</ele>
        <time>2017-08-09T09:03:55Z</time>
      </trkpt>
      <trkpt lat="48.59896" lon="1.95612">
        <ele>122.22</ele>
        <time>2017-08-09T09:03:59Z</time>
      </trkpt>
      <trkpt lat="48.59894" lon="1.95619">
        <ele>122.22</ele>
        <time>2017-08-09T09:04:04Z</time>
      </trkpt>
      <trkpt lat="48.59885" lon="1.95633">
        <ele>122.22</ele>
        <time>2017-08-09T09:04:12Z</time>
      </trkpt>
      <trkpt lat="48.59885" lon="1.95634">
        <ele>123.19</ele>
        <time>2017-08-09T09:04:13Z</time>
      </trkpt>
      <trkpt lat="48.59881" lon="1.95648">
        <ele>122.71</ele>
        <time>2017-08-09T09:04:22Z</time>
      </trkpt>
      <trkpt lat="48.59882" lon="1.95652">
        <ele>122.71</ele>
        <time>2017-08-09T09:04:24Z</time>
      </trkpt>
      <trkpt lat="48.59872" lon="1.95668">
        <ele>122.71</ele>
        <time>2017-08-09T09:04:34Z</time>
      </trkpt>
      <trkpt lat="48.5987" lon="1.95679">
        <ele>122.71</ele>
        <time>2017-08-09T09:04:42Z</time>
      </trkpt>
      <trkpt lat="48.5987" lon="1.95683">
        <ele>122.71</ele>
        <time>2017-08-09T09:04:44Z</time>
      </trkpt>
      <trkpt lat="48.59868" lon="1.95686">
        <ele>123.19</ele>
        <time>2017-08-09T09:04:50Z</time>
      </trkpt>
      <trkpt lat="48.59859" lon="1.95698">
        <ele>123.19</ele>
        <time>2017-08-09T09:04:59Z</time>
      </trkpt>
      <trkpt lat="48.59857" lon="1.95705">
        <ele>122.71</ele>
        <time>2017-08-09T09:05:03Z</time>
      </trkpt>
      <trkpt lat="48.59854" lon="1.95709">
        <ele>123.19</ele>
        <time>2017-08-09T09:05:05Z</time>
      </trkpt>
      <trkpt lat="48.59844" lon="1.95724">
        <ele>123.19</ele>
        <time>2017-08-09T09:05:15Z</time>
      </trkpt>
      <trkpt lat="48.59839" lon="1.9574">
        <ele>123.19</ele>
        <time>2017-08-09T09:05:24Z</time>
      </trkpt>
      <trkpt lat="48.59837" lon="1.95747">
        <ele>123.67</ele>
        <time>2017-08-09T09:05:28Z</time>
      </trkpt>
      <trkpt lat="48.59825" lon="1.95765">
        <ele>123.67</ele>
        <time>2017-08-09T09:05:38Z</time>
      </trkpt>
      <trkpt lat="48.59814" lon="1.9578">
        <ele>124.15</ele>
        <time>2017-08-09T09:05:47Z</time>
      </trkpt>
      <trkpt lat="48.59814" lon="1.9578">
        <ele>124.15</ele>
        <time>2017-08-09T09:05:48Z</time>
      </trkpt>
      <trkpt lat="48.59808" lon="1.95789">
        <ele>124.15</ele>
        <time>2017-08-09T09:05:55Z</time>
      </trkpt>
      <trkpt lat="48.59805" lon="1.95793">
        <ele>124.15</ele>
        <time>2017-08-09T09:05:58Z</time>
      </trkpt>
      <trkpt lat="48.598" lon="1.95806">
        <ele>124.15</ele>
        <time>2017-08-09T09:06:07Z</time>
      </trkpt>
      <trkpt lat="48.598" lon="1.95813">
        <ele>124.15</ele>
        <time>2017-08-09T09:06:11Z</time>
      </trkpt>
      <trkpt lat="48.59797" lon="1.95822">
        <ele>124.63</ele>
        <time>2017-08-09T09:06:15Z</time>
      </trkpt>
      <trkpt lat="48.59786" lon="1.95836">
        <ele>124.63</ele>
        <time>2017-08-09T09:06:23Z</time>
      </trkpt>
      <trkpt lat="48.59782" lon="1.95845">
        <ele>124.63</ele>
        <time>2017-08-09T09:06:28Z</time>
      </trkpt>
      <trkpt lat="48.59781" lon="1.95848">
        <ele>124.63</ele>
        <time>2017-08-09T09:06:30Z</time>
      </trkpt>
      <trkpt lat="48.59775" lon="1.95871">
        <ele>125.59</ele>
        <time>2017-08-09T09:06:43Z</time>
      </trkpt>
      <trkpt lat="48.59775" lon="1.95877">
        <ele>125.59</ele>
        <time>2017-08-09T09:06:47Z</time>
      </trkpt>
      <trkpt lat="48.59767" lon="1.95886">
        <ele>125.59</ele>
        <time>2017-08-09T09:06:52Z</time>
      </trkpt>
      <trkpt lat="48.59766" lon="1.95889">
        <ele>126.07</ele>
        <time>2017-08-09T09:06:54Z</time>
      </trkpt>
      <trkpt lat="48.5976" lon="1.959">
        <ele>126.07</ele>
        <time>2017-08-09T09:07:00Z</time>
      </trkpt>
      <trkpt lat="48.59757" lon="1.95904">
        <ele>126.55</ele>
        <time>2017-08-09T09:07:02Z</time>
      </trkpt>
      <trkpt lat="48.59749" lon="1.95919">
        <ele>126.55</ele>
        <time>2017-08-09T09:07:10Z</time>
      </trkpt>
      <trkpt lat="48.59741" lon="1.9594">
        <ele>127.51</ele>
        <time>2017-08-09T09:07:18Z</time>
      </trkpt>
      <trkpt lat="48.59738" lon="1.95954">
        <ele>127.51</ele>
        <time>2017-08-09T09:07:27Z</time>
      </trkpt>
      <trkpt lat="48.59725" lon="1.95966">
        <ele>128.47</ele>
        <time>2017-08-09T09:07:35Z</time>
      </trkpt>
      <trkpt lat="48.59723" lon="1.95976">
        <ele>128.47</ele>
        <time>2017-08-09T09:07:40Z</time>
      </trkpt>
      <trkpt lat="48.5972" lon="1.96">
        <ele>128.95</ele>
        <time>2017-08-09T09:07:49Z</time>
      </trkpt>
      <trkpt lat="48.59719" lon="1.96003">
        <ele>128.95</ele>
        <time>2017-08-09T09:07:50Z</time>
      </trkpt>
      <trkpt lat="48.59714" lon="1.96011">
        <ele>128.95</ele>
        <time>2017-08-09T09:07:57Z</time>
      </trkpt>
      <trkpt lat="48.59715" lon="1.96014">
        <ele>129.43</ele>
        <time>2017-08-09T09:08:00Z</time>
      </trkpt>
      <trkpt lat="48.59712" lon="1.96021">
        <ele>129.92</ele>
        <time>2017-08-09T09:08:10Z</time>
      </trkpt>
      <trkpt lat="48.5971" lon="1.96027">
        <ele>129.92</ele>
        <time>2017-08-09T09:08:13Z</time>
      </trkpt>
      <trkpt lat="48.59703" lon="1.96036">
        <ele>130.88</ele>
        <time>2017-08-09T09:08:22Z</time>
      </trkpt>
      <trkpt lat="48.59692" lon="1.96047">
        <ele>131.84</ele>
        <time>2017-08-09T09:08:29Z</time>
      </trkpt>
      <trkpt lat="48.59689" lon="1.9605">
        <ele>132.32</ele>
        <time>2017-08-09T09:08:31Z</time>
      </trkpt>
      <trkpt lat="48.59684" lon="1.96069">
        <ele>133.28</ele>
        <time>2017-08-09T09:08:40Z</time>
      </trkpt>
      <trkpt lat="48.59684" lon="1.96071">
        <ele>133.28</ele>
        <time>2017-08-09T09:08:41Z</time>
      </trkpt>
      <trkpt lat="48.59673" lon="1.96083">
        <ele>134.72</ele>
        <time>2017-08-09T09:08:49Z</time>
      </trkpt>
      <trkpt lat="48.59671" lon="1.96093">
        <ele>135.2</ele>
        <time>2017-08-09T09:08:55Z</time>
      </trkpt>
      <trkpt lat="48.59668" lon="1.96099">
        <ele>135.2</ele>
        <time>2017-08-09T09:08:58Z</time>
      </trkpt>
      <trkpt lat="48.59663" lon="1.96108">
        <ele>136.16</ele>
        <time>2017-08-09T09:09:05Z</time>
      </trkpt>
      <trkpt lat="48.59661" lon="1.96111">
        <ele>136.16</ele>
        <time>2017-08-09T09:09:07Z</time>
      </trkpt>
      <trkpt lat="48.59656" lon="1.96122">
        <ele>136.64</ele>
        <time>2017-08-09T09:09:15Z</time>
      </trkpt>
      <trkpt lat="48.59647" lon="1.96141">
        <ele>138.09</ele>
        <time>2017-08-09T09:09:25Z</time>
      </trkpt>
      <trkpt lat="48.59645" lon="1.96153">
        <ele>138.57</ele>
        <time>2017-08-09T09:09:30Z</time>
      </trkpt>
      <trkpt lat="48.59644" lon="1.96156">
        <ele>139.05</ele>
        <time>2017-08-09T09:09:32Z</time>
      </trkpt>
      <trkpt lat="48.59642" lon="1.96162">
        <ele>140.01</ele>
        <time>2017-08-09T09:09:35Z</time>
      </trkpt>
      <trkpt lat="48.59634" lon="1.96172">
        <ele>141.93</ele>
        <time>2017-08-09T09:09:46Z</time>
      </trkpt>
      <trkpt lat="48.59631" lon="1.96179">
        <ele>142.41</ele>
        <time>2017-08-09T09:09:51Z</time>
      </trkpt>
      <trkpt lat="48.59624" lon="1.96191">
        <ele>143.37</ele>
        <time>2017-08-09T09:09:59Z</time>
      </trkpt>
      <trkpt lat="48.59619" lon="1.96204">
        <ele>145.3</ele>
        <time>2017-08-09T09:10:08Z</time>
      </trkpt>
      <trkpt lat="48.59615" lon="1.96208">
        <ele>146.26</ele>
        <time>2017-08-09T09:10:13Z</time>
      </trkpt>
      <trkpt lat="48.59615" lon="1.96212">
        <ele>146.74</ele>
        <time>2017-08-09T09:10:15Z</time>
      </trkpt>
      <trkpt lat="48.59611" lon="1.9622">
        <ele>148.18</ele>
        <time>2017-08-09T09:10:21Z</time>
      </trkpt>
      <trkpt lat="48.59603" lon="1.96234">
        <ele>150.1</ele>
        <time>2017-08-09T09:10:32Z</time>
      </trkpt>
      <trkpt lat="48.596" lon="1.9624">
        <ele>150.58</ele>
        <time>2017-08-09T09:10:37Z</time>
      </trkpt>
      <trkpt lat="48.59596" lon="1.96249">
        <ele>151.06</ele>
        <time>2017-08-09T09:10:42Z</time>
      </trkpt>
      <trkpt lat="48.59595" lon="1.96253">
        <ele>151.54</ele>
        <time>2017-08-09T09:10:44Z</time>
      </trkpt>
      <trkpt lat="48.59592" lon="1.96257">
        <ele>151.54</ele>
        <time>2017-08-09T09:10:47Z</time>
      </trkpt>
      <trkpt lat="48.59586" lon="1.96268">
        <ele>152.51</ele>
        <time>2017-08-09T09:10:55Z</time>
      </trkpt>
      <trkpt lat="48.59581" lon="1.96278">
        <ele>152.99</ele>
        <time>2017-08-09T09:10:59Z</time>
      </trkpt>
      <trkpt lat="48.59581" lon="1.96279">
        <ele>152.99</ele>
        <time>2017-08-09T09:11:01Z</time>
      </trkpt>
      <trkpt lat="48.59579" lon="1.9629">
        <ele>153.95</ele>
        <time>2017-08-09T09:11:09Z</time>
      </trkpt>
      <trkpt lat="48.59577" lon="1.96296">
        <ele>154.43</ele>
        <time>2017-08-09T09:11:12Z</time>
      </trkpt>
      <trkpt lat="48.59578" lon="1.96305">
        <ele>153.95</ele>
        <time>2017-08-09T09:11:23Z</time>
      </trkpt>
      <trkpt lat="48.59579" lon="1.96307">
        <ele>153.95</ele>
        <time>2017-08-09T09:11:45Z</time>
      </trkpt>
      <trkpt lat="48.5958" lon="1.96307">
        <ele>153.95</ele>
        <time>2017-08-09T09:12:12Z</time>
      </trkpt>
      <trkpt lat="48.59579" lon="1.96308">
        <ele>153.95</ele>
        <time>2017-08-09T09:12:32Z</time>
      </trkpt>
      <trkpt lat="48.59578" lon="1.96308">
        <ele>154.43</ele>
        <time>2017-08-09T09:12:50Z</time>
      </trkpt>
      <trkpt lat="48.59578" lon="1.96308">
        <ele>157.79</ele>
        <time>2017-08-09T09:13:01Z</time>
      </trkpt>
      <trkpt lat="48.59578" lon="1.96308">
        <ele>153.95</ele>
        <time>2017-08-09T09:13:02Z</time>
      </trkpt>
      <trkpt lat="48.59575" lon="1.96313">
        <ele>152.99</ele>
        <time>2017-08-09T09:13:07Z</time>
      </trkpt>
      <trkpt lat="48.59574" lon="1.96315">
        <ele>152.99</ele>
        <time>2017-08-09T09:13:09Z</time>
      </trkpt>
      <trkpt lat="48.5957" lon="1.96324">
        <ele>152.51</ele>
        <time>2017-08-09T09:13:17Z</time>
      </trkpt>
      <trkpt lat="48.5957" lon="1.96328">
        <ele>152.99</ele>
        <time>2017-08-09T09:13:20Z</time>
      </trkpt>
      <trkpt lat="48.59569" lon="1.96332">
        <ele>152.99</ele>
        <time>2017-08-09T09:13:23Z</time>
      </trkpt>
      <trkpt lat="48.59559" lon="1.96347">
        <ele>152.51</ele>
        <time>2017-08-09T09:13:33Z</time>
      </trkpt>
      <trkpt lat="48.59554" lon="1.9636">
        <ele>151.54</ele>
        <time>2017-08-09T09:13:44Z</time>
      </trkpt>
      <trkpt lat="48.59548" lon="1.96375">
        <ele>151.54</ele>
        <time>2017-08-09T09:13:52Z</time>
      </trkpt>
      <trkpt lat="48.59548" lon="1.96377">
        <ele>151.54</ele>
        <time>2017-08-09T09:13:54Z</time>
      </trkpt>
      <trkpt lat="48.59545" lon="1.96384">
        <ele>150.58</ele>
        <time>2017-08-09T09:13:58Z</time>
      </trkpt>
      <trkpt lat="48.5954" lon="1.96393">
        <ele>150.58</ele>
        <time>2017-08-09T09:14:02Z</time>
      </trkpt>
      <trkpt lat="48.59536" lon="1.96405">
        <ele>149.14</ele>
        <time>2017-08-09T09:14:12Z</time>
      </trkpt>
      <trkpt lat="48.59528" lon="1.96424">
        <ele>148.66</ele>
        <time>2017-08-09T09:14:22Z</time>
      </trkpt>
      <trkpt lat="48.59525" lon="1.96431">
        <ele>148.18</ele>
        <time>2017-08-09T09:14:25Z</time>
      </trkpt>
      <trkpt lat="48.59523" lon="1.96436">
        <ele>147.7</ele>
        <time>2017-08-09T09:14:27Z</time>
      </trkpt>
      <trkpt lat="48.59518" lon="1.96442">
        <ele>146.74</ele>
        <time>2017-08-09T09:14:36Z</time>
      </trkpt>
      <trkpt lat="48.59517" lon="1.96446">
        <ele>146.26</ele>
        <time>2017-08-09T09:14:38Z</time>
      </trkpt>
      <trkpt lat="48.5951" lon="1.96461">
        <ele>145.78</ele>
        <time>2017-08-09T09:14:46Z</time>
      </trkpt>
      <trkpt lat="48.59509" lon="1.96462">
        <ele>145.3</ele>
        <time>2017-08-09T09:14:47Z</time>
      </trkpt>
      <trkpt lat="48.59503" lon="1.96475">
        <ele>145.3</ele>
        <time>2017-08-09T09:14:56Z</time>
      </trkpt>
      <trkpt lat="48.59494" lon="1.96497">
        <ele>144.34</ele>
        <time>2017-08-09T09:15:05Z</time>
      </trkpt>
      <trkpt lat="48.59488" lon="1.9651">
        <ele>142.89</ele>
        <time>2017-08-09T09:15:16Z</time>
      </trkpt>
      <trkpt lat="48.59485" lon="1.9652">
        <ele>142.41</ele>
        <time>2017-08-09T09:15:20Z</time>
      </trkpt>
      <trkpt lat="48.59479" lon="1.96532">
        <ele>141.93</ele>
        <time>2017-08-09T09:15:25Z</time>
      </trkpt>
      <trkpt lat="48.59473" lon="1.96545">
        <ele>140.97</ele>
        <time>2017-08-09T09:15:34Z</time>
      </trkpt>
      <trkpt lat="48.5947" lon="1.9655">
        <ele>140.97</ele>
        <time>2017-08-09T09:15:38Z</time>
      </trkpt>
      <trkpt lat="48.59465" lon="1.96568">
        <ele>140.49</ele>
        <time>2017-08-09T09:15:44Z</time>
      </trkpt>
      <trkpt lat="48.59463" lon="1.96571">
        <ele>140.49</ele>
        <time>2017-08-09T09:15:50Z</time>
      </trkpt>
      <trkpt lat="48.59452" lon="1.96593">
        <ele>140.49</ele>
        <time>2017-08-09T09:16:00Z</time>
      </trkpt>
      <trkpt lat="48.59444" lon="1.96607">
        <ele>140.49</ele>
        <time>2017-08-09T09:16:10Z</time>
      </trkpt>
      <trkpt lat="48.59443" lon="1.96624">
        <ele>140.49</ele>
        <time>2017-08-09T09:16:17Z</time>
      </trkpt>
      <trkpt lat="48.59433" lon="1.96633">
        <ele>140.49</ele>
        <time>2017-08-09T09:16:24Z</time>
      </trkpt>
      <trkpt lat="48.59431" lon="1.96638">
        <ele>140.01</ele>
        <time>2017-08-09T09:16:26Z</time>
      </trkpt>
      <trkpt lat="48.59427" lon="1.9665">
        <ele>140.01</ele>
        <time>2017-08-09T09:16:35Z</time>
      </trkpt>
      <trkpt lat="48.59414" lon="1.96672">
        <ele>140.49</ele>
        <time>2017-08-09T09:16:46Z</time>
      </trkpt>
      <trkpt lat="48.59407" lon="1.96685">
        <ele>140.01</ele>
        <time>2017-08-09T09:16:55Z</time>
      </trkpt>
      <trkpt lat="48.59399" lon="1.96698">
        <ele>140.49</ele>
        <time>2017-08-09T09:17:02Z</time>
      </trkpt>
      <trkpt lat="48.59398" lon="1.967">
        <ele>140.49</ele>
        <time>2017-08-09T09:17:05Z</time>
      </trkpt>
      <trkpt lat="48.59394" lon="1.96708">
        <ele>140.49</ele>
        <time>2017-08-09T09:17:11Z</time>
      </trkpt>
      <trkpt lat="48.59388" lon="1.96726">
        <ele>140.97</ele>
        <time>2017-08-09T09:17:21Z</time>
      </trkpt>
      <trkpt lat="48.59383" lon="1.96734">
        <ele>141.45</ele>
        <time>2017-08-09T09:17:27Z</time>
      </trkpt>
      <trkpt lat="48.59381" lon="1.96739">
        <ele>141.45</ele>
        <time>2017-08-09T09:17:30Z</time>
      </trkpt>
      <trkpt lat="48.59374" lon="1.96752">
        <ele>141.93</ele>
        <time>2017-08-09T09:17:39Z</time>
      </trkpt>
      <trkpt lat="48.59369" lon="1.96763">
        <ele>141.93</ele>
        <time>2017-08-09T09:17:45Z</time>
      </trkpt>
      <trkpt lat="48.59359" lon="1.96783">
        <ele>141.93</ele>
        <time>2017-08-09T09:17:57Z</time>
      </trkpt>
      <trkpt lat="48.59353" lon="1.96795">
        <ele>140.97</ele>
        <time>2017-08-09T09:18:07Z</time>
      </trkpt>
      <trkpt lat="48.59352" lon="1.96798">
        <ele>140.97</ele>
        <time>2017-08-09T09:18:08Z</time>
      </trkpt>
      <trkpt lat="48.59343" lon="1.96817">
        <ele>139.53</ele>
        <time>2017-08-09T09:18:17Z</time>
      </trkpt>
      <trkpt lat="48.59342" lon="1.96818">
        <ele>138.57</ele>
        <time>2017-08-09T09:18:21Z</time>
      </trkpt>
      <trkpt lat="48.59335" lon="1.96828">
        <ele>137.13</ele>
        <time>2017-08-09T09:18:28Z</time>
      </trkpt>
      <trkpt lat="48.5933" lon="1.96835">
        <ele>136.64</ele>
        <time>2017-08-09T09:18:32Z</time>
      </trkpt>
      <trkpt lat="48.59327" lon="1.96841">
        <ele>136.16</ele>
        <time>2017-08-09T09:18:39Z</time>
      </trkpt>
      <trkpt lat="48.59323" lon="1.96853">
        <ele>135.68</ele>
        <time>2017-08-09T09:18:46Z</time>
      </trkpt>
      <trkpt lat="48.59317" lon="1.9686">
        <ele>133.76</ele>
        <time>2017-08-09T09:18:53Z</time>
      </trkpt>
      <trkpt lat="48.59314" lon="1.96866">
        <ele>133.28</ele>
        <time>2017-08-09T09:18:56Z</time>
      </trkpt>
      <trkpt lat="48.59305" lon="1.96891">
        <ele>130.4</ele>
        <time>2017-08-09T09:19:10Z</time>
      </trkpt>
      <trkpt lat="48.59299" lon="1.96902">
        <ele>128.47</ele>
        <time>2017-08-09T09:19:20Z</time>
      </trkpt>
      <trkpt lat="48.5929" lon="1.96924">
        <ele>127.51</ele>
        <time>2017-08-09T09:19:31Z</time>
      </trkpt>
      <trkpt lat="48.59286" lon="1.96934">
        <ele>127.03</ele>
        <time>2017-08-09T09:19:38Z</time>
      </trkpt>
      <trkpt lat="48.59284" lon="1.96938">
        <ele>126.55</ele>
        <time>2017-08-09T09:19:40Z</time>
      </trkpt>
      <trkpt lat="48.59278" lon="1.96945">
        <ele>125.59</ele>
        <time>2017-08-09T09:19:44Z</time>
      </trkpt>
      <trkpt lat="48.59273" lon="1.96956">
        <ele>124.15</ele>
        <time>2017-08-09T09:19:54Z</time>
      </trkpt>
      <trkpt lat="48.59268" lon="1.96965">
        <ele>123.19</ele>
        <time>2017-08-09T09:19:59Z</time>
      </trkpt>
      <trkpt lat="48.59264" lon="1.9698">
        <ele>122.22</ele>
        <time>2017-08-09T09:20:05Z</time>
      </trkpt>
      <trkpt lat="48.59253" lon="1.96995">
        <ele>121.26</ele>
        <time>2017-08-09T09:20:17Z</time>
      </trkpt>
      <trkpt lat="48.59251" lon="1.97002">
        <ele>120.78</ele>
        <time>2017-08-09T09:20:20Z</time>
      </trkpt>
      <trkpt lat="48.59241" lon="1.9702">
        <ele>120.78</ele>
        <time>2017-08-09T09:20:32Z</time>
      </trkpt>
      <trkpt lat="48.59235" lon="1.97036">
        <ele>120.78</ele>
        <time>2017-08-09T09:20:41Z</time>
      </trkpt>
      <trkpt lat="48.59231" lon="1.97049">
        <ele>120.78</ele>
        <time>2017-08-09T09:20:48Z</time>
      </trkpt>
      <trkpt lat="48.59226" lon="1.97055">
        <ele>120.78</ele>
        <time>2017-08-09T09:20:54Z</time>
      </trkpt>
      <trkpt lat="48.5922" lon="1.97067">
        <ele>120.3</ele>
        <time>2017-08-09T09:21:02Z</time>
      </trkpt>
      <trkpt lat="48.59213" lon="1.97081">
        <ele>120.3</ele>
        <time>2017-08-09T09:21:11Z</time>
      </trkpt>
      <trkpt lat="48.59207" lon="1.97101">
        <ele>120.3</ele>
        <time>2017-08-09T09:21:20Z</time>
      </trkpt>
      <trkpt lat="48.59205" lon="1.97103">
        <ele>119.82</ele>
        <time>2017-08-09T09:21:25Z</time>
      </trkpt>
      <trkpt lat="48.59203" lon="1.97111">
        <ele>119.82</ele>
        <time>2017-08-09T09:21:29Z</time>
      </trkpt>
      <trkpt lat="48.59195" lon="1.97126">
        <ele>119.82</ele>
        <time>2017-08-09T09:21:39Z</time>
      </trkpt>
      <trkpt lat="48.59194" lon="1.97128">
        <ele>119.82</ele>
        <time>2017-08-09T09:21:40Z</time>
      </trkpt>
      <trkpt lat="48.59185" lon="1.97148">
        <ele>118.38</ele>
        <time>2017-08-09T09:21:51Z</time>
      </trkpt>
      <trkpt lat="48.59179" lon="1.9716">
        <ele>117.42</ele>
        <time>2017-08-09T09:22:01Z</time>
      </trkpt>
      <trkpt lat="48.59173" lon="1.97172">
        <ele>116.94</ele>
        <time>2017-08-09T09:22:08Z</time>
      </trkpt>
      <trkpt lat="48.59165" lon="1.97198">
        <ele>116.46</ele>
        <time>2017-08-09T09:22:21Z</time>
      </trkpt>
      <trkpt lat="48.5916" lon="1.97206">
        <ele>115.98</ele>
        <time>2017-08-09T09:22:26Z</time>
      </trkpt>
      <trkpt lat="48.59151" lon="1.97221">
        <ele>115.98</ele>
        <time>2017-08-09T09:22:36Z</time>
      </trkpt>
      <trkpt lat="48.59141" lon="1.97243">
        <ele>115.5</ele>
        <time>2017-08-09T09:22:48Z</time>
      </trkpt>
      <trkpt lat="48.59128" lon="1.97275">
        <ele>115.5</ele>
        <time>2017-08-09T09:23:01Z</time>
      </trkpt>
      <trkpt lat="48.59124" lon="1.97281">
        <ele>115.5</ele>
        <time>2017-08-09T09:23:07Z</time>
      </trkpt>
      <trkpt lat="48.59121" lon="1.97287">
        <ele>115.5</ele>
        <time>2017-08-09T09:23:11Z</time>
      </trkpt>
      <trkpt lat="48.5911" lon="1.97313">
        <ele>114.53</ele>
        <time>2017-08-09T09:23:25Z</time>
      </trkpt>
      <trkpt lat="48.59105" lon="1.97318">
        <ele>114.53</ele>
        <time>2017-08-09T09:23:34Z</time>
      </trkpt>
      <trkpt lat="48.59093" lon="1.97301">
        <ele>114.05</ele>
        <time>2017-08-09T09:23:48Z</time>
      </trkpt>
      <trkpt lat="48.59087" lon="1.97297">
        <ele>113.57</ele>
        <time>2017-08-09T09:23:54Z</time>
      </trkpt>
      <trkpt lat="48.59073" lon="1.97284">
        <ele>113.09</ele>
        <time>2017-08-09T09:24:05Z</time>
      </trkpt>
      <trkpt lat="48.59069" lon="1.97282">
        <ele>113.09</ele>
        <time>2017-08-09T09:24:08Z</time>
      </trkpt>
      <trkpt lat="48.5905" lon="1.97267">
        <ele>112.61</ele>
        <time>2017-08-09T09:24:20Z</time>
      </trkpt>
      <trkpt lat="48.59044" lon="1.97261">
        <ele>112.61</ele>
        <time>2017-08-09T09:24:27Z</time>
      </trkpt>
      <trkpt lat="48.59042" lon="1.97261">
        <ele>112.13</ele>
        <time>2017-08-09T09:24:29Z</time>
      </trkpt>
      <trkpt lat="48.59035" lon="1.97254">
        <ele>112.13</ele>
        <time>2017-08-09T09:24:35Z</time>
      </trkpt>
      <trkpt lat="48.59027" lon="1.97244">
        <ele>111.65</ele>
        <time>2017-08-09T09:24:45Z</time>
      </trkpt>
      <trkpt lat="48.59027" lon="1.97242">
        <ele>111.65</ele>
        <time>2017-08-09T09:24:46Z</time>
      </trkpt>
      <trkpt lat="48.5903" lon="1.97226">
        <ele>111.65</ele>
        <time>2017-08-09T09:24:58Z</time>
      </trkpt>
      <trkpt lat="48.59029" lon="1.97218">
        <ele>111.65</ele>
        <time>2017-08-09T09:25:02Z</time>
      </trkpt>
      <trkpt lat="48.59035" lon="1.97185">
        <ele>112.13</ele>
        <time>2017-08-09T09:25:16Z</time>
      </trkpt>
      <trkpt lat="48.59039" lon="1.97169">
        <ele>112.13</ele>
        <time>2017-08-09T09:25:23Z</time>
      </trkpt>
      <trkpt lat="48.59043" lon="1.97158">
        <ele>112.13</ele>
        <time>2017-08-09T09:25:28Z</time>
      </trkpt>
      <trkpt lat="48.59047" lon="1.97135">
        <ele>112.61</ele>
        <time>2017-08-09T09:25:41Z</time>
      </trkpt>
      <trkpt lat="48.59047" lon="1.97132">
        <ele>112.13</ele>
        <time>2017-08-09T09:25:42Z</time>
      </trkpt>
      <trkpt lat="48.5905" lon="1.97109">
        <ele>112.61</ele>
        <time>2017-08-09T09:25:53Z</time>
      </trkpt>
      <trkpt lat="48.59052" lon="1.97104">
        <ele>112.61</ele>
        <time>2017-08-09T09:26:00Z</time>
      </trkpt>
      <trkpt lat="48.59053" lon="1.9709">
        <ele>113.09</ele>
        <time>2017-08-09T09:26:06Z</time>
      </trkpt>
      <trkpt lat="48.59064" lon="1.97049">
        <ele>113.57</ele>
        <time>2017-08-09T09:26:19Z</time>
      </trkpt>
      <trkpt lat="48.59067" lon="1.97046">
        <ele>113.57</ele>
        <time>2017-08-09T09:26:23Z</time>
      </trkpt>
      <trkpt lat="48.5907" lon="1.97036">
        <ele>113.57</ele>
        <time>2017-08-09T09:26:28Z</time>
      </trkpt>
      <trkpt lat="48.59071" lon="1.97027">
        <ele>113.57</ele>
        <time>2017-08-09T09:26:32Z</time>
      </trkpt>
      <trkpt lat="48.59071" lon="1.97008">
        <ele>114.05</ele>
        <time>2017-08-09T09:26:44Z</time>
      </trkpt>
      <trkpt lat="48.59071" lon="1.97002">
        <ele>114.05</ele>
        <time>2017-08-09T09:26:47Z</time>
      </trkpt>
      <trkpt lat="48.59074" lon="1.96979">
        <ele>114.05</ele>
        <time>2017-08-09T09:26:59Z</time>
      </trkpt>
      <trkpt lat="48.59077" lon="1.96973">
        <ele>114.05</ele>
        <time>2017-08-09T09:27:02Z</time>
      </trkpt>
      <trkpt lat="48.59081" lon="1.96965">
        <ele>114.05</ele>
        <time>2017-08-09T09:27:05Z</time>
      </trkpt>
      <trkpt lat="48.59085" lon="1.96954">
        <ele>113.57</ele>
        <time>2017-08-09T09:27:13Z</time>
      </trkpt>
      <trkpt lat="48.59093" lon="1.96934">
        <ele>113.09</ele>
        <time>2017-08-09T09:27:23Z</time>
      </trkpt>
      <trkpt lat="48.59092" lon="1.96927">
        <ele>113.57</ele>
        <time>2017-08-09T09:27:36Z</time>
      </trkpt>
      <trkpt lat="48.59093" lon="1.96923">
        <ele>114.05</ele>
        <time>2017-08-09T09:27:40Z</time>
      </trkpt>
      <trkpt lat="48.591" lon="1.96905">
        <ele>114.05</ele>
        <time>2017-08-09T09:27:50Z</time>
      </trkpt>
      <trkpt lat="48.59101" lon="1.96903">
        <ele>114.05</ele>
        <time>2017-08-09T09:27:51Z</time>
      </trkpt>
      <trkpt lat="48.59106" lon="1.9689">
        <ele>114.53</ele>
        <time>2017-08-09T09:27:58Z</time>
      </trkpt>
      <trkpt lat="48.59106" lon="1.96886">
        <ele>114.53</ele>
        <time>2017-08-09T09:28:00Z</time>
      </trkpt>
      <trkpt lat="48.59108" lon="1.96877">
        <ele>114.53</ele>
        <time>2017-08-09T09:28:03Z</time>
      </trkpt>
      <trkpt lat="48.59112" lon="1.96865">
        <ele>114.53</ele>
        <time>2017-08-09T09:28:11Z</time>
      </trkpt>
      <trkpt lat="48.59118" lon="1.96838">
        <ele>114.05</ele>
        <time>2017-08-09T09:28:22Z</time>
      </trkpt>
      <trkpt lat="48.59123" lon="1.96819">
        <ele>114.05</ele>
        <time>2017-08-09T09:28:32Z</time>
      </trkpt>
      <trkpt lat="48.59123" lon="1.96816">
        <ele>114.53</ele>
        <time>2017-08-09T09:28:35Z</time>
      </trkpt>
      <trkpt lat="48.59127" lon="1.96803">
        <ele>115.01</ele>
        <time>2017-08-09T09:28:40Z</time>
      </trkpt>
      <trkpt lat="48.59132" lon="1.96787">
        <ele>115.01</ele>
        <time>2017-08-09T09:28:49Z</time>
      </trkpt>
      <trkpt lat="48.59138" lon="1.96769">
        <ele>115.5</ele>
        <time>2017-08-09T09:28:59Z</time>
      </trkpt>
      <trkpt lat="48.59139" lon="1.96764">
        <ele>115.5</ele>
        <time>2017-08-09T09:29:02Z</time>
      </trkpt>
      <trkpt lat="48.59145" lon="1.96748">
        <ele>115.98</ele>
        <time>2017-08-09T09:29:13Z</time>
      </trkpt>
      <trkpt lat="48.59148" lon="1.96741">
        <ele>116.46</ele>
        <time>2017-08-09T09:29:18Z</time>
      </trkpt>
      <trkpt lat="48.59155" lon="1.96716">
        <ele>115.98</ele>
        <time>2017-08-09T09:29:28Z</time>
      </trkpt>
      <trkpt lat="48.59157" lon="1.96711">
        <ele>116.46</ele>
        <time>2017-08-09T09:29:32Z</time>
      </trkpt>
      <trkpt lat="48.59159" lon="1.96695">
        <ele>116.46</ele>
        <time>2017-08-09T09:29:40Z</time>
      </trkpt>
      <trkpt lat="48.59158" lon="1.96691">
        <ele>116.46</ele>
        <time>2017-08-09T09:29:42Z</time>
      </trkpt>
      <trkpt lat="48.59157" lon="1.96658">
        <ele>116.46</ele>
        <time>2017-08-09T09:29:56Z</time>
      </trkpt>
      <trkpt lat="48.59158" lon="1.96634">
        <ele>116.46</ele>
        <time>2017-08-09T09:30:08Z</time>
      </trkpt>
      <trkpt lat="48.59158" lon="1.9663">
        <ele>116.46</ele>
        <time>2017-08-09T09:30:10Z</time>
      </trkpt>
      <trkpt lat="48.59156" lon="1.96614">
        <ele>116.46</ele>
        <time>2017-08-09T09:30:20Z</time>
      </trkpt>
      <trkpt lat="48.59155" lon="1.96612">
        <ele>115.98</ele>
        <time>2017-08-09T09:30:21Z</time>
      </trkpt>
      <trkpt lat="48.59154" lon="1.96595">
        <ele>115.98</ele>
        <time>2017-08-09T09:30:30Z</time>
      </trkpt>
      <trkpt lat="48.59156" lon="1.96592">
        <ele>116.94</ele>
        <time>2017-08-09T09:30:34Z</time>
      </trkpt>
      <trkpt lat="48.59163" lon="1.96599">
        <ele>116.94</ele>
        <time>2017-08-09T09:30:41Z</time>
      </trkpt>
      <trkpt lat="48.5917" lon="1.96607">
        <ele>117.42</ele>
        <time>2017-08-09T09:30:48Z</time>
      </trkpt>
      <trkpt lat="48.59172" lon="1.96612">
        <ele>117.9</ele>
        <time>2017-08-09T09:30:51Z</time>
      </trkpt>
      <trkpt lat="48.59172" lon="1.96614">
        <ele>117.42</ele>
        <time>2017-08-09T09:31:05Z</time>
      </trkpt>
      <trkpt lat="48.59172" lon="1.96611">
        <ele>117.42</ele>
        <time>2017-08-09T09:31:18Z</time>
      </trkpt>
      <trkpt lat="48.59172" lon="1.96611">
        <ele>117.42</ele>
        <time>2017-08-09T09:31:36Z</time>
      </trkpt>
      <trkpt lat="48.59173" lon="1.9661">
        <ele>117.42</ele>
        <time>2017-08-09T09:31:57Z</time>
      </trkpt>
      <trkpt lat="48.59173" lon="1.96611">
        <ele>118.86</ele>
        <time>2017-08-09T09:32:17Z</time>
      </trkpt>
      <trkpt lat="48.59173" lon="1.96611">
        <ele>118.86</ele>
        <time>2017-08-09T09:32:18Z</time>
      </trkpt>
      <trkpt lat="48.59174" lon="1.96612">
        <ele>117.42</ele>
        <time>2017-08-09T09:32:31Z</time>
      </trkpt>
      <trkpt lat="48.59175" lon="1.96607">
        <ele>117.42</ele>
        <time>2017-08-09T09:32:41Z</time>
      </trkpt>
      <trkpt lat="48.59172" lon="1.96607">
        <ele>117.42</ele>
        <time>2017-08-09T09:32:55Z</time>
      </trkpt>
      <trkpt lat="48.59172" lon="1.96607">
        <ele>117.42</ele>
        <time>2017-08-09T09:33:11Z</time>
      </trkpt>
      <trkpt lat="48.59172" lon="1.96607">
        <ele>118.38</ele>
        <time>2017-08-09T09:33:23Z</time>
      </trkpt>
    </trkseg>
  </trk>
</gpx>